Observation data for JA Ranch on 01/13/2021      Previous  Date  Next       Current Mesonet Observations  Soil Data  Daily Summary Page  Observations in Plain Language
KPD3 130600Z 25014KT 03/M02 A3014 RMK A01 T00301016  RH  072%=      5-min Rain = 0
KPD3 130601Z 25015KT 03/M02 A3014 RMK A01 T00291017  RH  072%=      5-min Rain = 0
KPD3 130602Z 25014KT 03/M02 A3014 RMK A01 T00281017  RH  072%=      5-min Rain = 0
KPD3 130603Z 26014KT 03/M02 A3014 RMK A01 T00271018  RH  073%=      5-min Rain = 0
KPD3 130604Z 26014KT 03/M02 A3014 RMK A01 T00261018  RH  073%=      5-min Rain = 0
KPD3 130605Z 26014KT 03/M02 A3014 RMK A01 T00251019  RH  073%=      5-min Rain = 0
KPD3 130606Z 26014KT 02/M02 A3014 RMK A01 T00231019  RH  074%=      5-min Rain = 0
KPD3 130607Z 26014KT 02/M02 A3014 RMK A01 T00231019  RH  074%=      5-min Rain = 0
KPD3 130608Z 26014KT 02/M02 A3014 RMK A01 T00231019  RH  074%=      5-min Rain = 0
KPD3 130609Z 26014KT 02/M02 A3014 RMK A01 T00231019  RH  074%=      5-min Rain = 0
KPD3 130610Z 26013KT 02/M02 A3014 RMK A01 T00221019  RH  074%=      5-min Rain = 0
KPD3 130611Z 25013KT 02/M02 A3014 RMK A01 T00221020  RH  074%=      5-min Rain = 0
KPD3 130612Z 25013KT 02/M02 A3014 RMK A01 T00211020  RH  074%=      5-min Rain = 0
KPD3 130613Z 26013KT 02/M02 A3014 RMK A01 T00211020  RH  074%=      5-min Rain = 0
KPD3 130614Z 26013KT 02/M02 A3014 RMK A01 T00211020  RH  074%=      5-min Rain = 0
KPD3 130615Z 26013KT 02/M02 A3014 RMK A01 T00201021  RH  075%=      5-min Rain = 0
KPD3 130616Z 26013KT 02/M02 A3014 RMK A01 T00191021  RH  075%=      5-min Rain = 0
KPD3 130617Z 26013KT 02/M02 A3014 RMK A01 T00201020  RH  075%=      5-min Rain = 0
KPD3 130618Z 26012KT 02/M02 A3014 RMK A01 T00201020  RH  075%=      5-min Rain = 0
KPD3 130619Z 26012KT 02/M02 A3014 RMK A01 T00201021  RH  074%=      5-min Rain = 0
KPD3 130620Z 26011KT 02/M02 A3014 RMK A01 T00191021  RH  074%=      5-min Rain = 0
KPD3 130621Z 26011KT 02/M02 A3014 RMK A01 T00181022  RH  075%=      5-min Rain = 0
KPD3 130622Z 26011KT 02/M02 A3014 RMK A01 T00171023  RH  075%=      5-min Rain = 0
KPD3 130623Z 26010KT 02/M02 A3014 RMK A01 T00161023  RH  075%=      5-min Rain = 0
KPD3 130624Z 26010KT 02/M02 A3014 RMK A01 T00151024  RH  076%=      5-min Rain = 0
KPD3 130625Z 26010KT 01/M02 A3014 RMK A01 T00141023  RH  076%=      5-min Rain = 0
KPD3 130626Z 26010KT 01/M02 A3014 RMK A01 T00141023  RH  076%=      5-min Rain = 0
KPD3 130627Z 26010KT 01/M02 A3014 RMK A01 T00141023  RH  076%=      5-min Rain = 0
KPD3 130628Z 26009KT 01/M02 A3014 RMK A01 T00141023  RH  076%=      5-min Rain = 0
KPD3 130629Z 25009KT 01/M02 A3014 RMK A01 T00141024  RH  076%=      5-min Rain = 0
KPD3 130630Z 25009KT 01/M02 A3014 RMK A01 T00141024  RH  076%=      5-min Rain = 0
KPD3 130631Z 25009KT 01/M02 A3014 RMK A01 T00141024  RH  075%=      5-min Rain = 0
KPD3 130632Z 25008KT 02/M02 A3014 RMK A01 T00151024  RH  075%=      5-min Rain = 0
KPD3 130633Z 26008KT 02/M02 A3014 RMK A01 T00171023  RH  075%=      5-min Rain = 0
KPD3 130634Z 26007KT 02/M02 A3014 RMK A01 T00181023  RH  074%=      5-min Rain = 0
KPD3 130635Z 26007KT 02/M02 A3014 RMK A01 T00181024  RH  074%=      5-min Rain = 0
KPD3 130636Z 26007KT 02/M03 A3014 RMK A01 T00181025  RH  073%=      5-min Rain = 0
KPD3 130637Z 26007KT 02/M03 A3014 RMK A01 T00181025  RH  073%=      5-min Rain = 0
KPD3 130638Z 26007KT 02/M03 A3014 RMK A01 T00181025  RH  073%=      5-min Rain = 0
KPD3 130639Z 26007KT 02/M03 A3014 RMK A01 T00181025  RH  073%=      5-min Rain = 0
KPD3 130640Z 26006KT 02/M03 A3014 RMK A01 T00181026  RH  073%=      5-min Rain = 0
KPD3 130641Z 26006KT 02/M03 A3014 RMK A01 T00171026  RH  073%=      5-min Rain = 0
KPD3 130642Z 26005KT 02/M03 A3014 RMK A01 T00171026  RH  073%=      5-min Rain = 0
KPD3 130643Z 26006KT 02/M03 A3014 RMK A01 T00161026  RH  073%=      5-min Rain = 0
KPD3 130644Z 25005KT 02/M03 A3014 RMK A01 T00161027  RH  073%=      5-min Rain = 0
KPD3 130645Z 25005KT 01/M03 A3014 RMK A01 T00141029  RH  073%=      5-min Rain = 0
KPD3 130646Z 25005KT 01/M03 A3014 RMK A01 T00121031  RH  073%=      5-min Rain = 0
KPD3 130647Z 25005KT 01/M03 A3014 RMK A01 T00101031  RH  074%=      5-min Rain = 0
KPD3 130648Z 24005KT 01/M03 A3014 RMK A01 T00101031  RH  074%=      5-min Rain = 0
KPD3 130649Z 25005KT 01/M03 A3014 RMK A01 T00081033  RH  074%=      5-min Rain = 0
KPD3 130650Z 25005KT 01/M03 A3014 RMK A01 T00071033  RH  075%=      5-min Rain = 0
KPD3 130651Z 26005KT 00/M04 A3014 RMK A01 T00041036  RH  075%=      5-min Rain = 0
KPD3 130652Z 26005KT 00/M03 A3014 RMK A01 T00031034  RH  076%=      5-min Rain = 0
KPD3 130653Z 26005KT 00/M03 A3014 RMK A01 T00031034  RH  076%=      5-min Rain = 0
KPD3 130654Z 26004KT 00/M03 A3014 RMK A01 T00021034  RH  076%=      5-min Rain = 0
KPD3 130655Z 26005KT 00/M03 A3014 RMK A01 T00041030  RH  078%=      5-min Rain = 0
KPD3 130656Z 26004KT 01/M03 A3014 RMK A01 T00071029  RH  077%=      5-min Rain = 0
KPD3 130657Z 26004KT 01/M03 A3013 RMK A01 T00101027  RH  076%=      5-min Rain = 0
KPD3 130658Z 25004KT 01/M03 A3013 RMK A01 T00121029  RH  074%=      5-min Rain = 0
KPD3 130659Z 25003KT 01/M04 A3013 RMK A01 T00071036  RH  073%=      5-min Rain = 0
KPD3 130700Z 25003KT 01/M02 A3013 RMK A01 T00121024  RH  077%=      5-min Rain = 0
KPD3 130701Z 25003KT 02/M02 A3013 RMK A01 T00191018  RH  076%=      5-min Rain = 0
KPD3 130702Z 26003KT 02/M02 A3013 RMK A01 T00241017  RH  074%=      5-min Rain = 0
KPD3 130703Z 25003KT 03/M02 A3013 RMK A01 T00271020  RH  071%=      5-min Rain = 0
KPD3 130704Z 26003KT 03/M02 A3013 RMK A01 T00291019  RH  071%=      5-min Rain = 0
KPD3 130705Z 26003KT 03/M02 A3013 RMK A01 T00321020  RH  069%=      5-min Rain = 0
KPD3 130706Z 26002KT 03/M02 A3013 RMK A01 T00311022  RH  068%=      5-min Rain = 0
KPD3 130707Z 26002KT 03/M02 A3013 RMK A01 T00311021  RH  069%=      5-min Rain = 0
KPD3 130708Z 26003KT 03/M02 A3013 RMK A01 T00341019  RH  069%=      5-min Rain = 0
KPD3 130709Z 27002KT 04/M02 A3013 RMK A01 T00351021  RH  067%=      5-min Rain = 0
KPD3 130710Z 26003KT 04/M02 A3013 RMK A01 T00351020  RH  067%=      5-min Rain = 0
KPD3 130711Z 27003KT 04/M02 A3013 RMK A01 T00371020  RH  067%=      5-min Rain = 0
KPD3 130712Z 25002KT 04/M02 A3013 RMK A01 T00361022  RH  066%=      5-min Rain = 0
KPD3 130713Z 26002KT 04/M02 A3013 RMK A01 T00361020  RH  066%=      5-min Rain = 0
KPD3 130714Z 27004KT 04/M02 A3013 RMK A01 T00361020  RH  066%=      5-min Rain = 0
KPD3 130715Z 25003KT 04/M02 A3013 RMK A01 T00391020  RH  066%=      5-min Rain = 0
KPD3 130716Z 27003KT 04/M02 A3013 RMK A01 T00411020  RH  065%=      5-min Rain = 0
KPD3 130717Z 26004KT 04/M02 A3013 RMK A01 T00421020  RH  064%=      5-min Rain = 0
KPD3 130718Z 25001KT 04/M02 A3013 RMK A01 T00431020  RH  063%=      5-min Rain = 0
KPD3 130719Z 26003KT 05/M02 A3013 RMK A01 T00451020  RH  062%=      5-min Rain = 0
KPD3 130720Z 25004KT 05/M02 A3013 RMK A01 T00461021  RH  062%=      5-min Rain = 0
KPD3 130721Z 28002KT 05/M02 A3013 RMK A01 T00461020  RH  062%=      5-min Rain = 0
KPD3 130722Z 23002KT 05/M02 A3013 RMK A01 T00451020  RH  062%=      5-min Rain = 0
KPD3 130723Z 28002KT 05/M02 A3014 RMK A01 T00461021  RH  062%=      5-min Rain = 0
KPD3 130724Z 31002KT 05/M02 A3014 RMK A01 T00451021  RH  062%=      5-min Rain = 0
KPD3 130725Z 31002KT 04/M02 A3014 RMK A01 T00411023  RH  063%=      5-min Rain = 0
KPD3 130726Z 31002KT 04/M02 A3014 RMK A01 T00401022  RH  064%=      5-min Rain = 0
KPD3 130727Z 33002KT 04/M02 A3014 RMK A01 T00401022  RH  064%=      5-min Rain = 0
KPD3 130728Z 34002KT 04/M02 A3014 RMK A01 T00401024  RH  063%=      5-min Rain = 0
KPD3 130729Z 33003KT 04/M03 A3014 RMK A01 T00391026  RH  063%=      5-min Rain = 0
KPD3 130730Z 32002KT 04/M03 A3014 RMK A01 T00381025  RH  064%=      5-min Rain = 0
KPD3 130731Z 33003KT 04/M03 A3014 RMK A01 T00371026  RH  063%=      5-min Rain = 0
KPD3 130732Z 31004KT 04/M03 A3014 RMK A01 T00361027  RH  063%=      5-min Rain = 0
KPD3 130733Z 30004KT 04/M03 A3014 RMK A01 T00351028  RH  064%=      5-min Rain = 0
KPD3 130734Z 28003KT 03/M03 A3014 RMK A01 T00341029  RH  063%=      5-min Rain = 0
KPD3 130735Z 27002KT 03/M03 A3013 RMK A01 T00341029  RH  064%=      5-min Rain = 0
KPD3 130736Z 28002KT 03/M03 A3013 RMK A01 T00331029  RH  064%=      5-min Rain = 0
KPD3 130737Z 26002KT 03/M03 A3013 RMK A01 T00331028  RH  064%=      5-min Rain = 0
KPD3 130738Z 28003KT 03/M03 A3013 RMK A01 T00331029  RH  064%=      5-min Rain = 0
KPD3 130739Z 27003KT 03/M03 A3013 RMK A01 T00321030  RH  064%=      5-min Rain = 0
KPD3 130740Z 27004KT 03/M03 A3013 RMK A01 T00311030  RH  064%=      5-min Rain = 0
KPD3 130741Z 27006KT 03/M03 A3013 RMK A01 T00301030  RH  065%=      5-min Rain = 0
KPD3 130742Z 26005KT 03/M03 A3013 RMK A01 T00301028  RH  065%=      5-min Rain = 0
KPD3 130743Z 27005KT 03/M03 A3014 RMK A01 T00311027  RH  066%=      5-min Rain = 0
KPD3 130744Z 26005KT 03/M03 A3014 RMK A01 T00311027  RH  066%=      5-min Rain = 0
KPD3 130745Z 28006KT 03/M03 A3014 RMK A01 T00301027  RH  066%=      5-min Rain = 0
KPD3 130746Z 28007KT 03/M03 A3014 RMK A01 T00311027  RH  066%=      5-min Rain = 0
KPD3 130747Z 28006KT 03/M03 A3014 RMK A01 T00311027  RH  066%=      5-min Rain = 0
KPD3 130748Z 29006KT 03/M03 A3014 RMK A01 T00311027  RH  066%=      5-min Rain = 0
KPD3 130749Z 29006KT 03/M03 A3014 RMK A01 T00311027  RH  066%=      5-min Rain = 0
KPD3 130750Z 28006KT 03/M03 A3014 RMK A01 T00301028  RH  066%=      5-min Rain = 0
KPD3 130751Z 29007KT 03/M03 A3014 RMK A01 T00291029  RH  066%=      5-min Rain = 0
KPD3 130752Z 29007KT 03/M03 A3014 RMK A01 T00281030  RH  066%=      5-min Rain = 0
KPD3 130753Z 30005KT 03/M03 A3014 RMK A01 T00291030  RH  065%=      5-min Rain = 0
KPD3 130754Z 30005KT 03/M03 A3014 RMK A01 T00281032  RH  065%=      5-min Rain = 0
KPD3 130755Z 30004KT 03/M03 A3014 RMK A01 T00251034  RH  065%=      5-min Rain = 0
KPD3 130756Z 30005KT 03/M03 A3014 RMK A01 T00261032  RH  065%=      5-min Rain = 0
KPD3 130757Z 30004KT 03/M03 A3014 RMK A01 T00271033  RH  064%=      5-min Rain = 0
KPD3 130758Z 31004KT 03/M03 A3013 RMK A01 T00291033  RH  064%=      5-min Rain = 0
KPD3 130759Z 31003KT 03/M04 A3013 RMK A01 T00281035  RH  063%=      5-min Rain = 0
KPD3 130800Z 31005KT 03/M04 A3013 RMK A01 T00261035  RH  064%=      5-min Rain = 0
KPD3 130801Z 31005KT 03/M04 A3013 RMK A01 T00261035  RH  064%=      5-min Rain = 0
KPD3 130802Z 31005KT 03/M04 A3013 RMK A01 T00251035  RH  065%=      5-min Rain = 0
KPD3 130803Z 32005KT 03/M03 A3013 RMK A01 T00251034  RH  065%=      5-min Rain = 0
KPD3 130804Z 32004KT 03/M03 A3013 RMK A01 T00261034  RH  065%=      5-min Rain = 0
KPD3 130805Z 31004KT 03/M03 A3013 RMK A01 T00271032  RH  065%=      5-min Rain = 0
KPD3 130806Z 32005KT 03/M03 A3013 RMK A01 T00281032  RH  064%=      5-min Rain = 0
KPD3 130807Z 31004KT 03/M03 A3013 RMK A01 T00301032  RH  064%=      5-min Rain = 0
KPD3 130808Z 32005KT 03/M03 A3013 RMK A01 T00311031  RH  063%=      5-min Rain = 0
KPD3 130809Z 31004KT 03/M03 A3013 RMK A01 T00321032  RH  063%=      5-min Rain = 0
KPD3 130810Z 32004KT 03/M03 A3013 RMK A01 T00321033  RH  063%=      5-min Rain = 0
KPD3 130811Z 32004KT 03/M03 A3013 RMK A01 T00311033  RH  063%=      5-min Rain = 0
KPD3 130812Z 32004KT 03/M03 A3013 RMK A01 T00301033  RH  063%=      5-min Rain = 0
KPD3 130813Z 32004KT 03/M03 A3013 RMK A01 T00301033  RH  063%=      5-min Rain = 0
KPD3 130814Z 32004KT 03/M03 A3013 RMK A01 T00301033  RH  063%=      5-min Rain = 0
KPD3 130815Z 32004KT 03/M03 A3013 RMK A01 T00311033  RH  063%=      5-min Rain = 0
KPD3 130816Z 33003KT 03/M03 A3013 RMK A01 T00301033  RH  063%=      5-min Rain = 0
KPD3 130817Z 33002KT 03/M03 A3013 RMK A01 T00291033  RH  063%=      5-min Rain = 0
KPD3 130818Z 34002KT 03/M03 A3013 RMK A01 T00291033  RH  063%=      5-min Rain = 0
KPD3 130819Z 34003KT 03/M03 A3013 RMK A01 T00281034  RH  064%=      5-min Rain = 0
KPD3 130820Z 34002KT 03/M04 A3013 RMK A01 T00261035  RH  064%=      5-min Rain = 0
KPD3 130821Z 34002KT 03/M04 A3013 RMK A01 T00251035  RH  064%=      5-min Rain = 0
KPD3 130822Z 33002KT 02/M04 A3013 RMK A01 T00241035  RH  065%=      5-min Rain = 0
KPD3 130823Z 34002KT 02/M04 A3013 RMK A01 T00231035  RH  065%=      5-min Rain = 0
KPD3 130824Z 33002KT 02/M03 A3013 RMK A01 T00231034  RH  066%=      5-min Rain = 0
KPD3 130825Z 32001KT 02/M03 A3013 RMK A01 T00241033  RH  066%=      5-min Rain = 0
KPD3 130826Z 35001KT 02/M03 A3013 RMK A01 T00241034  RH  066%=      5-min Rain = 0
KPD3 130827Z 33001KT 02/M03 A3012 RMK A01 T00241034  RH  066%=      5-min Rain = 0
KPD3 130828Z 33002KT 02/M03 A3012 RMK A01 T00241033  RH  066%=      5-min Rain = 0
KPD3 130829Z 32002KT 02/M03 A3012 RMK A01 T00241032  RH  066%=      5-min Rain = 0
KPD3 130830Z 30002KT 02/M03 A3012 RMK A01 T00241033  RH  066%=      5-min Rain = 0
KPD3 130831Z 29001KT 02/M03 A3012 RMK A01 T00221034  RH  066%=      5-min Rain = 0
KPD3 130832Z 28003KT 02/M03 A3012 RMK A01 T00211033  RH  067%=      5-min Rain = 0
KPD3 130833Z 28003KT 02/M03 A3012 RMK A01 T00201033  RH  068%=      5-min Rain = 0
KPD3 130834Z 27004KT 02/M03 A3012 RMK A01 T00201032  RH  068%=      5-min Rain = 0
KPD3 130835Z 27005KT 02/M03 A3012 RMK A01 T00201031  RH  069%=      5-min Rain = 0
KPD3 130836Z 28006KT 02/M03 A3012 RMK A01 T00201031  RH  069%=      5-min Rain = 0
KPD3 130837Z 27006KT 02/M03 A3012 RMK A01 T00201029  RH  070%=      5-min Rain = 0
KPD3 130838Z 27007KT 02/M03 A3012 RMK A01 T00231026  RH  070%=      5-min Rain = 0
KPD3 130839Z 27008KT 03/M03 A3012 RMK A01 T00261026  RH  069%=      5-min Rain = 0
KPD3 130840Z 27008KT 03/M03 A3012 RMK A01 T00281025  RH  068%=      5-min Rain = 0
KPD3 130841Z 27008KT 03/M03 A3012 RMK A01 T00301025  RH  067%=      5-min Rain = 0
KPD3 130842Z 28010KT 03/M03 A3012 RMK A01 T00311025  RH  066%=      5-min Rain = 0
KPD3 130843Z 28011KT 03/M03 A3012 RMK A01 T00341025  RH  065%=      5-min Rain = 0
KPD3 130844Z 28010KT 04/M03 A3012 RMK A01 T00371025  RH  064%=      5-min Rain = 0
KPD3 130845Z 28012KT 04/M03 A3012 RMK A01 T00401025  RH  063%=      5-min Rain = 0
KPD3 130846Z 28012KT 04/M03 A3012 RMK A01 T00421026  RH  062%=      5-min Rain = 0
KPD3 130847Z 28014KT 04/M03 A3011 RMK A01 T00431027  RH  060%=      5-min Rain = 0
KPD3 130848Z 28014KT 05/M03 A3011 RMK A01 T00461027  RH  059%=      5-min Rain = 0
KPD3 130849Z 27014KT 05/M03 A3011 RMK A01 T00471028  RH  058%=      5-min Rain = 0
KPD3 130850Z 28014KT 05/M03 A3011 RMK A01 T00481029  RH  057%=      5-min Rain = 0
KPD3 130851Z 27013KT 05/M03 A3011 RMK A01 T00491029  RH  057%=      5-min Rain = 0
KPD3 130852Z 28014KT 05/M03 A3011 RMK A01 T00491029  RH  057%=      5-min Rain = 0
KPD3 130853Z 28013KT 05/M03 A3011 RMK A01 T00491030  RH  057%=      5-min Rain = 0
KPD3 130854Z 27015KT 05/M03 A3011 RMK A01 T00491031  RH  056%=      5-min Rain = 0
KPD3 130855Z 27014KT 05/M03 A3011 RMK A01 T00501031  RH  056%=      5-min Rain = 0
KPD3 130856Z 27015G20KT 05/M03 A3011 RMK A01 T00501032  RH  055%=      5-min Rain = 0
KPD3 130857Z 28016KT 05/M03 A3011 RMK A01 T00521033  RH  054%=      5-min Rain = 0
KPD3 130858Z 27017G22KT 05/M03 A3011 RMK A01 T00541034  RH  053%=      5-min Rain = 0
KPD3 130859Z 27015G20KT 06/M03 A3011 RMK A01 T00551034  RH  053%=      5-min Rain = 0
KPD3 130900Z 27015KT 05/M04 A3011 RMK A01 T00541035  RH  052%=      5-min Rain = 0
KPD3 130901Z 27016KT 05/M04 A3011 RMK A01 T00541036  RH  052%=      5-min Rain = 0
KPD3 130902Z 27016KT 06/M04 A3011 RMK A01 T00551037  RH  052%=      5-min Rain = 0
KPD3 130903Z 27015KT 06/M04 A3011 RMK A01 T00551037  RH  052%=      5-min Rain = 0
KPD3 130904Z 27015KT 06/M04 A301 RMK A01 T00551037  RH  052%=      5-min Rain = 0
KPD3 130905Z 27017KT 05/M04 A301 RMK A01 T00541037  RH  052%=      5-min Rain = 0
KPD3 130906Z 27020G25KT 06/M04 A301 RMK A01 T00561038  RH  051%=      5-min Rain = 0
KPD3 130907Z 27019KT 06/M04 A301 RMK A01 T00581037  RH  051%=      5-min Rain = 0
KPD3 130908Z 26020KT 06/M04 A301 RMK A01 T00581038  RH  050%=      5-min Rain = 0
KPD3 130909Z 27018KT 06/M04 A301 RMK A01 T00591038  RH  050%=      5-min Rain = 0
KPD3 130910Z 27019KT 06/M04 A301 RMK A01 T00581038  RH  050%=      5-min Rain = 0
KPD3 130911Z 27018KT 06/M04 A301 RMK A01 T00581038  RH  050%=      5-min Rain = 0
KPD3 130912Z 27019KT 06/M04 A301 RMK A01 T00591038  RH  050%=      5-min Rain = 0
KPD3 130913Z 27019KT 06/M04 A301 RMK A01 T00591039  RH  049%=      5-min Rain = 0
KPD3 130914Z 27017KT 06/M04 A301 RMK A01 T00591039  RH  049%=      5-min Rain = 0
KPD3 130915Z 27019KT 06/M04 A301 RMK A01 T00581039  RH  050%=      5-min Rain = 0
KPD3 130916Z 27019KT 06/M04 A301 RMK A01 T00581040  RH  049%=      5-min Rain = 0
KPD3 130917Z 27016KT 06/M04 A301 RMK A01 T00591040  RH  049%=      5-min Rain = 0
KPD3 130918Z 27016KT 06/M04 A301 RMK A01 T00581040  RH  049%=      5-min Rain = 0
KPD3 130919Z 27014KT 06/M04 A301 RMK A01 T00571040  RH  050%=      5-min Rain = 0
KPD3 130920Z 27015G20KT 06/M04 A301 RMK A01 T00551041  RH  050%=      5-min Rain = 0
KPD3 130921Z 27015KT 06/M04 A301 RMK A01 T00551041  RH  050%=      5-min Rain = 0
KPD3 130922Z 27014KT 06/M04 A301 RMK A01 T00551041  RH  050%=      5-min Rain = 0
KPD3 130923Z 27013KT 06/M04 A301 RMK A01 T00551041  RH  050%=      5-min Rain = 0
KPD3 130924Z 28017KT 06/M04 A3009 RMK A01 T00551041  RH  050%=      5-min Rain = 0
KPD3 130925Z 27014KT 06/M04 A301 RMK A01 T00561041  RH  050%=      5-min Rain = 0
KPD3 130926Z 28013KT 06/M04 A301 RMK A01 T00561041  RH  050%=      5-min Rain = 0
KPD3 130927Z 27011KT 05/M04 A301 RMK A01 T00541041  RH  050%=      5-min Rain = 0
KPD3 130928Z 27012KT 05/M04 A301 RMK A01 T00531041  RH  050%=      5-min Rain = 0
KPD3 130929Z 27009KT 05/M04 A301 RMK A01 T00541041  RH  050%=      5-min Rain = 0
KPD3 130930Z 27009KT 05/M04 A301 RMK A01 T00531042  RH  050%=      5-min Rain = 0
KPD3 130931Z 27008KT 05/M04 A301 RMK A01 T00521043  RH  050%=      5-min Rain = 0
KPD3 130932Z 27007G12KT 05/M04 A301 RMK A01 T00511043  RH  051%=      5-min Rain = 0
KPD3 130933Z 28008KT 05/M04 A301 RMK A01 T00511042  RH  051%=      5-min Rain = 0
KPD3 130934Z 28006KT 05/M04 A301 RMK A01 T00501043  RH  051%=      5-min Rain = 0
KPD3 130935Z 28006KT 05/M04 A301 RMK A01 T00491043  RH  051%=      5-min Rain = 0
KPD3 130936Z 30002KT 05/M04 A301 RMK A01 T00481043  RH  052%=      5-min Rain = 0
KPD3 130937Z 29002KT 05/M04 A301 RMK A01 T00461044  RH  052%=      5-min Rain = 0
KPD3 130938Z 27006KT 05/M04 A301 RMK A01 T00451044  RH  052%=      5-min Rain = 0
KPD3 130939Z 26003KT 05/M04 A301 RMK A01 T00461044  RH  052%=      5-min Rain = 0
KPD3 130940Z 27005KT 05/M04 A301 RMK A01 T00461044  RH  052%=      5-min Rain = 0
KPD3 130941Z 26004KT 05/M04 A301 RMK A01 T00461044  RH  052%=      5-min Rain = 0
KPD3 130942Z 29003KT 05/M04 A301 RMK A01 T00451044  RH  053%=      5-min Rain = 0
KPD3 130943Z 29003KT 04/M04 A301 RMK A01 T00431044  RH  053%=      5-min Rain = 0
KPD3 130944Z 26004KT 04/M05 A301 RMK A01 T00431045  RH  053%=      5-min Rain = 0
KPD3 130945Z 28005KT 04/M04 A3009 RMK A01 T00441044  RH  053%=      5-min Rain = 0
KPD3 130946Z 24002KT 04/M04 A3009 RMK A01 T00441044  RH  053%=      5-min Rain = 0
KPD3 130947Z 25001KT 04/M04 A3009 RMK A01 T00431044  RH  053%=      5-min Rain = 0
KPD3 130948Z 26003KT 04/M04 A3009 RMK A01 T00431044  RH  053%=      5-min Rain = 0
KPD3 130949Z 31001KT 04/M04 A3009 RMK A01 T00431044  RH  053%=      5-min Rain = 0
KPD3 130950Z 31001KT 04/M04 A3009 RMK A01 T00431044  RH  053%=      5-min Rain = 0
KPD3 130951Z 06001KT 04/M05 A3009 RMK A01 T00431045  RH  053%=      5-min Rain = 0
KPD3 130952Z 13000KT 04/M05 A3009 RMK A01 T00401048  RH  053%=      5-min Rain = 0
KPD3 130953Z 12000KT 04/M05 A3009 RMK A01 T00381047  RH  054%=      5-min Rain = 0
KPD3 130954Z 16000KT 04/M05 A3009 RMK A01 T00371047  RH  054%=      5-min Rain = 0
KPD3 130955Z 10000KT 04/M05 A3009 RMK A01 T00351049  RH  054%=      5-min Rain = 0
KPD3 130956Z 00000KT 03/M05 A3008 RMK A01 T00321050  RH  055%=      5-min Rain = 0
KPD3 130957Z 00000KT 03/M05 A3008 RMK A01 T00301048  RH  056%=      5-min Rain = 0
KPD3 130958Z 05000KT 03/M05 A3008 RMK A01 T00301048  RH  056%=      5-min Rain = 0
KPD3 130959Z 06000KT 03/M05 A3008 RMK A01 T00281051  RH  056%=      5-min Rain = 0
KPD3 131000Z 36001KT 03/M05 A3008 RMK A01 T00271050  RH  057%=      5-min Rain = 0
KPD3 131001Z 33001KT 03/M05 A3008 RMK A01 T00281047  RH  057%=      5-min Rain = 0
KPD3 131002Z 33002KT 03/M04 A3008 RMK A01 T00331044  RH  057%=      5-min Rain = 0
KPD3 131003Z 31003KT 04/M04 A3008 RMK A01 T00381042  RH  056%=      5-min Rain = 0
KPD3 131004Z 30002KT 04/M04 A3008 RMK A01 T00411044  RH  054%=      5-min Rain = 0
KPD3 131005Z 29001KT 04/M05 A3008 RMK A01 T00411045  RH  054%=      5-min Rain = 0
KPD3 131006Z 29003KT 04/M04 A3008 RMK A01 T00421044  RH  054%=      5-min Rain = 0
KPD3 131007Z 32004KT 04/M04 A3008 RMK A01 T00431044  RH  053%=      5-min Rain = 0
KPD3 131008Z 33007KT 05/M04 A3008 RMK A01 T00451044  RH  052%=      5-min Rain = 0
KPD3 131009Z 31005KT 05/M04 A3008 RMK A01 T00451044  RH  053%=      5-min Rain = 0
KPD3 131010Z 27001KT 04/M04 A3008 RMK A01 T00441044  RH  053%=      5-min Rain = 0
KPD3 131011Z 27003KT 05/M04 A3007 RMK A01 T00451044  RH  052%=      5-min Rain = 0
KPD3 131012Z 29002KT 05/M05 A3007 RMK A01 T00451045  RH  052%=      5-min Rain = 0
KPD3 131013Z 29004KT 05/M05 A3007 RMK A01 T00451045  RH  052%=      5-min Rain = 0
KPD3 131014Z 30005KT 04/M05 A3007 RMK A01 T00441045  RH  052%=      5-min Rain = 0
KPD3 131015Z 30005KT 04/M05 A3007 RMK A01 T00421046  RH  052%=      5-min Rain = 0
KPD3 131016Z 28007KT 04/M05 A3007 RMK A01 T00421046  RH  053%=      5-min Rain = 0
KPD3 131017Z 30005KT 04/M05 A3007 RMK A01 T00431045  RH  053%=      5-min Rain = 0
KPD3 131018Z 28005KT 04/M05 A3007 RMK A01 T00441045  RH  053%=      5-min Rain = 0
KPD3 131019Z 27006KT 04/M05 A3007 RMK A01 T00431045  RH  053%=      5-min Rain = 0
KPD3 131020Z 26004KT 04/M05 A3007 RMK A01 T00441045  RH  052%=      5-min Rain = 0
KPD3 131021Z 25003KT 04/M05 A3007 RMK A01 T00441045  RH  052%=      5-min Rain = 0
KPD3 131022Z 25005KT 05/M05 A3007 RMK A01 T00451046  RH  052%=      5-min Rain = 0
KPD3 131023Z 27002KT 05/M05 A3007 RMK A01 T00461045  RH  052%=      5-min Rain = 0
KPD3 131024Z 29006KT 05/M05 A3007 RMK A01 T00451046  RH  052%=      5-min Rain = 0
KPD3 131025Z 27003KT 04/M05 A3007 RMK A01 T00431046  RH  052%=      5-min Rain = 0
KPD3 131026Z 25003KT 04/M05 A3007 RMK A01 T00441046  RH  052%=      5-min Rain = 0
KPD3 131027Z 27005KT 05/M05 A3007 RMK A01 T00451046  RH  052%=      5-min Rain = 0
KPD3 131028Z 25004KT 04/M05 A3007 RMK A01 T00441046  RH  052%=      5-min Rain = 0
KPD3 131029Z 27004KT 05/M05 A3007 RMK A01 T00451046  RH  052%=      5-min Rain = 0
KPD3 131030Z 27005KT 05/M05 A3007 RMK A01 T00451046  RH  052%=      5-min Rain = 0
KPD3 131031Z 26006KT 04/M05 A3007 RMK A01 T00441047  RH  052%=      5-min Rain = 0
KPD3 131032Z 28005KT 04/M05 A3007 RMK A01 T00431047  RH  052%=      5-min Rain = 0
KPD3 131033Z 27006KT 04/M05 A3007 RMK A01 T00431047  RH  052%=      5-min Rain = 0
KPD3 131034Z 28009KT 04/M05 A3007 RMK A01 T00421047  RH  053%=      5-min Rain = 0
KPD3 131035Z 27008KT 04/M05 A3007 RMK A01 T00411046  RH  053%=      5-min Rain = 0
KPD3 131036Z 27008KT 04/M05 A3007 RMK A01 T00401046  RH  054%=      5-min Rain = 0
KPD3 131037Z 27008KT 04/M05 A3007 RMK A01 T00391046  RH  054%=      5-min Rain = 0
KPD3 131038Z 28009KT 04/M05 A3007 RMK A01 T00371046  RH  055%=      5-min Rain = 0
KPD3 131039Z 27008KT 04/M05 A3007 RMK A01 T00351046  RH  055%=      5-min Rain = 0
KPD3 131040Z 28008KT 04/M05 A3007 RMK A01 T00351045  RH  056%=      5-min Rain = 0
KPD3 131041Z 29007KT 04/M05 A3007 RMK A01 T00351045  RH  056%=      5-min Rain = 0
KPD3 131042Z 29006KT 04/M05 A3007 RMK A01 T00381045  RH  055%=      5-min Rain = 0
KPD3 131043Z 27006KT 04/M05 A3007 RMK A01 T00371046  RH  055%=      5-min Rain = 0
KPD3 131044Z 28007KT 03/M05 A3007 RMK A01 T00341048  RH  055%=      5-min Rain = 0
KPD3 131045Z 27006KT 03/M05 A3007 RMK A01 T00321048  RH  056%=      5-min Rain = 0
KPD3 131046Z 26007KT 03/M05 A3007 RMK A01 T00281049  RH  057%=      5-min Rain = 0
KPD3 131047Z 26007KT 03/M05 A3007 RMK A01 T00251049  RH  058%=      5-min Rain = 0
KPD3 131048Z 27006KT 02/M05 A3007 RMK A01 T00241048  RH  059%=      5-min Rain = 0
KPD3 131049Z 27006KT 02/M05 A3007 RMK A01 T00231048  RH  060%=      5-min Rain = 0
KPD3 131050Z 28006KT 02/M05 A3007 RMK A01 T00221048  RH  060%=      5-min Rain = 0
KPD3 131051Z 27007KT 02/M05 A3007 RMK A01 T00201049  RH  060%=      5-min Rain = 0
KPD3 131052Z 27007KT 02/M05 A3007 RMK A01 T00201048  RH  061%=      5-min Rain = 0
KPD3 131053Z 27007KT 02/M05 A3007 RMK A01 T00181049  RH  061%=      5-min Rain = 0
KPD3 131054Z 28007KT 02/M05 A3007 RMK A01 T00161050  RH  062%=      5-min Rain = 0
KPD3 131055Z 27007KT 01/M05 A3007 RMK A01 T00141050  RH  063%=      5-min Rain = 0
KPD3 131056Z 28006KT 01/M05 A3007 RMK A01 T00131049  RH  063%=      5-min Rain = 0
KPD3 131057Z 27006KT 01/M05 A3007 RMK A01 T00121050  RH  063%=      5-min Rain = 0
KPD3 131058Z 27006KT 01/M05 A3007 RMK A01 T00091052  RH  064%=      5-min Rain = 0
KPD3 131059Z 27007KT 01/M05 A3007 RMK A01 T00061052  RH  065%=      5-min Rain = 0
KPD3 131100Z 26007KT 01/M05 A3007 RMK A01 T00051052  RH  066%=      5-min Rain = 0
KPD3 131101Z 26007KT 01/M05 A3007 RMK A01 T00061050  RH  066%=      5-min Rain = 0
KPD3 131102Z 26008KT 01/M05 A3007 RMK A01 T00081049  RH  066%=      5-min Rain = 0
KPD3 131103Z 26008KT 01/M05 A3007 RMK A01 T00091048  RH  066%=      5-min Rain = 0
KPD3 131104Z 26008KT 01/M05 A3007 RMK A01 T00101048  RH  065%=      5-min Rain = 0
KPD3 131105Z 26008KT 01/M05 A3007 RMK A01 T00111047  RH  065%=      5-min Rain = 0
KPD3 131106Z 26008KT 01/M05 A3007 RMK A01 T00111048  RH  065%=      5-min Rain = 0
KPD3 131107Z 26009KT 01/M05 A3007 RMK A01 T00111048  RH  065%=      5-min Rain = 0
KPD3 131108Z 26009KT 01/M05 A3007 RMK A01 T00101049  RH  065%=      5-min Rain = 0
KPD3 131109Z 26008KT 01/M05 A3007 RMK A01 T00081049  RH  065%=      5-min Rain = 0
KPD3 131110Z 26008KT 01/M05 A3006 RMK A01 T00051053  RH  065%=      5-min Rain = 0
KPD3 131111Z 26009KT M00/M06 A3006 RMK A01 T10021058  RH  066%=      5-min Rain = 0
KPD3 131112Z 26009KT M00/M05 A3006 RMK A01 T10031054  RH  069%=      5-min Rain = 0
KPD3 131113Z 26010KT 00/M05 A3006 RMK A01 T00021047  RH  070%=      5-min Rain = 0
KPD3 131114Z 26010KT 01/M05 A3006 RMK A01 T00061045  RH  069%=      5-min Rain = 0
KPD3 131115Z 26009KT 01/M04 A3006 RMK A01 T00101044  RH  067%=      5-min Rain = 0
KPD3 131116Z 26008KT 01/M05 A3006 RMK A01 T00131045  RH  066%=      5-min Rain = 0
KPD3 131117Z 26007KT 01/M05 A3006 RMK A01 T00141045  RH  064%=      5-min Rain = 0
KPD3 131118Z 26007KT 02/M05 A3005 RMK A01 T00151046  RH  064%=      5-min Rain = 0
KPD3 131119Z 26006KT 01/M05 A3005 RMK A01 T00131047  RH  064%=      5-min Rain = 0
KPD3 131120Z 23004KT 01/M05 A3005 RMK A01 T00111049  RH  064%=      5-min Rain = 0
KPD3 131121Z 21002KT 01/M05 A3005 RMK A01 T00091050  RH  065%=      5-min Rain = 0
KPD3 131122Z 14003KT 01/M05 A3005 RMK A01 T00061051  RH  065%=      5-min Rain = 0
KPD3 131123Z 13003KT M00/M06 A3005 RMK A01 T10011060  RH  065%=      5-min Rain = 0
KPD3 131124Z 14002KT M01/M06 A3005 RMK A01 T10111064  RH  067%=      5-min Rain = 0
KPD3 131125Z 15002KT M01/M06 A3005 RMK A01 T10131060  RH  070%=      5-min Rain = 0
KPD3 131126Z 15002KT M01/M06 A3005 RMK A01 T10131058  RH  072%=      5-min Rain = 0
KPD3 131127Z 15004KT M01/M06 A3005 RMK A01 T10141059  RH  071%=      5-min Rain = 0
KPD3 131128Z 16004KT M01/M06 A3005 RMK A01 T10141058  RH  072%=      5-min Rain = 0
KPD3 131129Z 16005KT M01/M06 A3005 RMK A01 T10141057  RH  072%=      5-min Rain = 0
KPD3 131130Z 18004KT M01/M06 A3005 RMK A01 T10131058  RH  072%=      5-min Rain = 0
KPD3 131131Z 20004KT M01/M06 A3005 RMK A01 T10131056  RH  073%=      5-min Rain = 0
KPD3 131132Z 21003KT M01/M05 A3005 RMK A01 T10111053  RH  073%=      5-min Rain = 0
KPD3 131133Z 19003KT M01/M05 A3005 RMK A01 T10071048  RH  074%=      5-min Rain = 0
KPD3 131134Z 20004KT M00/M05 A3005 RMK A01 T10021045  RH  073%=      5-min Rain = 0
KPD3 131135Z 20003KT 00/M05 A3005 RMK A01 T00021045  RH  071%=      5-min Rain = 0
KPD3 131136Z 21003KT 00/M05 A3005 RMK A01 T00031046  RH  070%=      5-min Rain = 0
KPD3 131137Z 21002KT 00/M05 A3005 RMK A01 T00041046  RH  069%=      5-min Rain = 0
KPD3 131138Z 24002KT 01/M05 A3005 RMK A01 T00061046  RH  069%=      5-min Rain = 0
KPD3 131139Z 24004KT 01/M05 A3005 RMK A01 T00061047  RH  068%=      5-min Rain = 0
KPD3 131140Z 25004KT 01/M05 A3005 RMK A01 T00051048  RH  068%=      5-min Rain = 0
KPD3 131141Z 26004KT 00/M05 A3005 RMK A01 T00031049  RH  068%=      5-min Rain = 0
KPD3 131142Z 25003KT 00/M05 A3005 RMK A01 T00011050  RH  069%=      5-min Rain = 0
KPD3 131143Z 25003KT 00/05 A3005 RMK A01 T00000-50  RH  069%=      5-min Rain = 0
KPD3 131144Z 25003KT M00/M05 A3005 RMK A01 T10011050  RH  069%=      5-min Rain = 0
KPD3 131145Z 24003KT M00/M05 A3005 RMK A01 T10031051  RH  070%=      5-min Rain = 0
KPD3 131146Z 24003KT M01/M05 A3005 RMK A01 T10051051  RH  071%=      5-min Rain = 0
KPD3 131147Z 25003KT M01/M05 A3005 RMK A01 T10061052  RH  071%=      5-min Rain = 0
KPD3 131148Z 27003KT M01/M05 A3005 RMK A01 T10071052  RH  072%=      5-min Rain = 0
KPD3 131149Z 28002KT M01/M05 A3005 RMK A01 T10081052  RH  072%=      5-min Rain = 0
KPD3 131150Z 29003KT M01/M05 A3005 RMK A01 T10081051  RH  073%=      5-min Rain = 0
KPD3 131151Z 28003KT M01/M05 A3005 RMK A01 T10091051  RH  073%=      5-min Rain = 0
KPD3 131152Z 27004KT M01/M05 A3005 RMK A01 T10091051  RH  073%=      5-min Rain = 0
KPD3 131153Z 26005KT M01/M05 A3005 RMK A01 T10071051  RH  072%=      5-min Rain = 0
KPD3 131154Z 26004KT M01/M05 A3005 RMK A01 T10061051  RH  072%=      5-min Rain = 0
KPD3 131155Z 27004KT M01/M05 A3005 RMK A01 T10051049  RH  072%=      5-min Rain = 0
KPD3 131156Z 27003KT M00/M05 A3005 RMK A01 T10031048  RH  072%=      5-min Rain = 0
KPD3 131157Z 25003KT M00/M05 A3005 RMK A01 T10011047  RH  071%=      5-min Rain = 0
KPD3 131158Z 25003KT 00/05 A3005 RMK A01 T00000-48  RH  070%=      5-min Rain = 0
KPD3 131159Z 24003KT 00/M05 A3005 RMK A01 T00011049  RH  069%=      5-min Rain = 0
KPD3 131200Z 26003KT 00/05 A3005 RMK A01 T00000-51  RH  069%=      5-min Rain = 0
KPD3 131201Z 26002KT M00/M05 A3005 RMK A01 T10011052  RH  069%=      5-min Rain = 0
KPD3 131202Z 25003KT M00/M05 A3005 RMK A01 T10021051  RH  069%=      5-min Rain = 0
KPD3 131203Z 25002KT M00/M05 A3005 RMK A01 T10031051  RH  070%=      5-min Rain = 0
KPD3 131204Z 25003KT M00/M05 A3005 RMK A01 T10041051  RH  070%=      5-min Rain = 0
KPD3 131205Z 26003KT M01/M05 A3005 RMK A01 T10051051  RH  071%=      5-min Rain = 0
KPD3 131206Z 25004KT M01/M05 A3005 RMK A01 T10061051  RH  071%=      5-min Rain = 0
KPD3 131207Z 26004KT M01/M05 A3005 RMK A01 T10071052  RH  072%=      5-min Rain = 0
KPD3 131208Z 25004KT M01/M05 A3005 RMK A01 T10091053  RH  072%=      5-min Rain = 0
KPD3 131209Z 25004KT M01/M05 A3005 RMK A01 T10101053  RH  073%=      5-min Rain = 0
KPD3 131210Z 25004KT M01/M05 A3005 RMK A01 T10101051  RH  074%=      5-min Rain = 0
KPD3 131211Z 25004KT M01/M05 A3005 RMK A01 T10081050  RH  074%=      5-min Rain = 0
KPD3 131212Z 25004KT M01/M05 A3005 RMK A01 T10071049  RH  073%=      5-min Rain = 0
KPD3 131213Z 25004KT M01/M05 A3005 RMK A01 T10071051  RH  072%=      5-min Rain = 0
KPD3 131214Z 24004KT M01/M06 A3005 RMK A01 T10111057  RH  071%=      5-min Rain = 0
KPD3 131215Z 24004KT M02/M06 A3005 RMK A01 T10181063  RH  071%=      5-min Rain = 0
KPD3 131216Z 23004KT M02/M07 A3005 RMK A01 T10241066  RH  073%=      5-min Rain = 0
KPD3 131217Z 22003KT M03/M06 A3005 RMK A01 T10271062  RH  077%=      5-min Rain = 0
KPD3 131218Z 22003KT M03/M06 A3005 RMK A01 T10281062  RH  078%=      5-min Rain = 0
KPD3 131219Z 23004KT M03/M06 A3005 RMK A01 T10301063  RH  079%=      5-min Rain = 0
KPD3 131220Z 24005KT M03/M06 A3005 RMK A01 T10301059  RH  080%=      5-min Rain = 0
KPD3 131221Z 23005KT M03/M06 A3005 RMK A01 T10291059  RH  080%=      5-min Rain = 0
KPD3 131222Z 25006KT M03/M06 A3005 RMK A01 T10281057  RH  080%=      5-min Rain = 0
KPD3 131223Z 26007KT M03/M06 A3005 RMK A01 T10281060  RH  079%=      5-min Rain = 0
KPD3 131224Z 23005KT M03/M06 A3005 RMK A01 T10281061  RH  078%=      5-min Rain = 0
KPD3 131225Z 26008KT M03/M06 A3005 RMK A01 T10291062  RH  078%=      5-min Rain = 0
KPD3 131226Z 24008KT M03/M06 A3005 RMK A01 T10281059  RH  079%=      5-min Rain = 0
KPD3 131227Z 24008KT M02/M05 A3005 RMK A01 T10241054  RH  080%=      5-min Rain = 0
KPD3 131228Z 25008KT M02/M05 A3005 RMK A01 T10211053  RH  079%=      5-min Rain = 0
KPD3 131229Z 24008KT M02/M05 A3005 RMK A01 T10171050  RH  078%=      5-min Rain = 0
KPD3 131230Z 24008KT M02/M05 A3005 RMK A01 T10151051  RH  076%=      5-min Rain = 0
KPD3 131231Z 24007KT M02/M05 A3005 RMK A01 T10161054  RH  076%=      5-min Rain = 0
KPD3 131232Z 24007KT M02/M06 A3005 RMK A01 T10181055  RH  076%=      5-min Rain = 0
KPD3 131233Z 24007KT M02/M06 A3005 RMK A01 T10201057  RH  076%=      5-min Rain = 0
KPD3 131234Z 24007KT M02/M06 A3005 RMK A01 T10231058  RH  076%=      5-min Rain = 0
KPD3 131235Z 24007KT M02/M06 A3005 RMK A01 T10241058  RH  077%=      5-min Rain = 0
KPD3 131236Z 23007KT M03/M06 A3005 RMK A01 T10261059  RH  078%=      5-min Rain = 0
KPD3 131237Z 23007KT M03/M06 A3005 RMK A01 T10271060  RH  078%=      5-min Rain = 0
KPD3 131238Z 24007KT M03/M06 A3005 RMK A01 T10291060  RH  079%=      5-min Rain = 0
KPD3 131239Z 24007KT M03/M06 A3005 RMK A01 T10301061  RH  079%=      5-min Rain = 0
KPD3 131240Z 23007KT M03/M06 A3005 RMK A01 T10311060  RH  080%=      5-min Rain = 0
KPD3 131241Z 24007KT M03/M06 A3005 RMK A01 T10301059  RH  081%=      5-min Rain = 0
KPD3 131242Z 25008KT M03/M06 A3005 RMK A01 T10301059  RH  081%=      5-min Rain = 0
KPD3 131243Z 25008KT M03/M06 A3005 RMK A01 T10301059  RH  080%=      5-min Rain = 0
KPD3 131244Z 26008KT M03/M06 A3005 RMK A01 T10311059  RH  081%=      5-min Rain = 0
KPD3 131245Z 26008KT M03/M06 A3005 RMK A01 T10301059  RH  081%=      5-min Rain = 0
KPD3 131246Z 26008KT M03/M06 A3005 RMK A01 T10291058  RH  081%=      5-min Rain = 0
KPD3 131247Z 26008KT M03/M05 A3005 RMK A01 T10261054  RH  081%=      5-min Rain = 0
KPD3 131248Z 26008KT M02/M05 A3005 RMK A01 T10221052  RH  080%=      5-min Rain = 0
KPD3 131249Z 26008KT M02/M05 A3005 RMK A01 T10201051  RH  079%=      5-min Rain = 0
KPD3 131250Z 26007KT M02/M05 A3005 RMK A01 T10171051  RH  078%=      5-min Rain = 0
KPD3 131251Z 27006KT M02/M05 A3006 RMK A01 T10151050  RH  077%=      5-min Rain = 0
KPD3 131252Z 27007KT M01/M05 A3006 RMK A01 T10141051  RH  076%=      5-min Rain = 0
KPD3 131253Z 26007KT M01/M05 A3006 RMK A01 T10131052  RH  075%=      5-min Rain = 0
KPD3 131254Z 26006KT M01/M05 A3006 RMK A01 T10131053  RH  074%=      5-min Rain = 0
KPD3 131255Z 26006KT M01/M05 A3006 RMK A01 T10131054  RH  074%=      5-min Rain = 0
KPD3 131256Z 25007KT M01/M05 A3006 RMK A01 T10131053  RH  074%=      5-min Rain = 0
KPD3 131257Z 25007KT M01/M05 A3005 RMK A01 T10111052  RH  073%=      5-min Rain = 0
KPD3 131258Z 25006KT M01/M05 A3005 RMK A01 T10091052  RH  073%=      5-min Rain = 0
KPD3 131259Z 25006KT M01/M05 A3006 RMK A01 T10091053  RH  072%=      5-min Rain = 0
KPD3 131300Z 25007KT M01/M05 A3006 RMK A01 T10101054  RH  072%=      5-min Rain = 0
KPD3 131301Z 24005KT M01/M05 A3006 RMK A01 T10111054  RH  073%=      5-min Rain = 0
KPD3 131302Z 24006KT M01/M06 A3006 RMK A01 T10131055  RH  073%=      5-min Rain = 0
KPD3 131303Z 24005KT M02/M06 A3006 RMK A01 T10151057  RH  073%=      5-min Rain = 0
KPD3 131304Z 23005KT M02/M06 A3006 RMK A01 T10161057  RH  074%=      5-min Rain = 0
KPD3 131305Z 23007KT M02/M06 A3006 RMK A01 T10161056  RH  074%=      5-min Rain = 0
KPD3 131306Z 25007KT M01/M05 A3006 RMK A01 T10141054  RH  074%=      5-min Rain = 0
KPD3 131307Z 25006KT M01/M05 A3006 RMK A01 T10121053  RH  074%=      5-min Rain = 0
KPD3 131308Z 24007KT M01/M05 A3006 RMK A01 T10111053  RH  073%=      5-min Rain = 0
KPD3 131309Z 25007KT M01/M05 A3006 RMK A01 T10111054  RH  073%=      5-min Rain = 0
KPD3 131310Z 26008KT M01/M05 A3005 RMK A01 T10111053  RH  073%=      5-min Rain = 0
KPD3 131311Z 26008KT M01/M05 A3005 RMK A01 T10101054  RH  073%=      5-min Rain = 0
KPD3 131312Z 26008KT M01/M05 A3005 RMK A01 T10111054  RH  072%=      5-min Rain = 0
KPD3 131313Z 26009KT M01/M05 A3005 RMK A01 T10091052  RH  072%=      5-min Rain = 0
KPD3 131314Z 27009KT M01/M05 A3005 RMK A01 T10071051  RH  072%=      5-min Rain = 0
KPD3 131315Z 27008KT M01/M05 A3005 RMK A01 T10051051  RH  071%=      5-min Rain = 0
KPD3 131316Z 27008KT M00/M05 A3005 RMK A01 T10031051  RH  070%=      5-min Rain = 0
KPD3 131317Z 26007KT M00/M05 A3005 RMK A01 T10031052  RH  070%=      5-min Rain = 0
KPD3 131318Z 25008KT M00/M05 A3005 RMK A01 T10021052  RH  069%=      5-min Rain = 0
KPD3 131319Z 25008KT M00/M05 A3005 RMK A01 T10021052  RH  069%=      5-min Rain = 0
KPD3 131320Z 25009KT M00/M05 A3005 RMK A01 T10011053  RH  068%=      5-min Rain = 0
KPD3 131321Z 25010KT M00/M05 A3005 RMK A01 T10011053  RH  068%=      5-min Rain = 0
KPD3 131322Z 25010KT M00/M05 A3005 RMK A01 T10011053  RH  068%=      5-min Rain = 0
KPD3 131323Z 25010KT 00/M05 A3004 RMK A01 T00021050  RH  068%=      5-min Rain = 0
KPD3 131324Z 25007KT 00/M05 A3004 RMK A01 T00031050  RH  067%=      5-min Rain = 0
KPD3 131325Z 25008KT 00/M05 A3004 RMK A01 T00041051  RH  067%=      5-min Rain = 0
KPD3 131326Z 25008KT 00/M05 A3004 RMK A01 T00031052  RH  067%=      5-min Rain = 0
KPD3 131327Z 25008KT 00/M05 A3004 RMK A01 T00011053  RH  067%=      5-min Rain = 0
KPD3 131328Z 25009KT 00/05 A3004 RMK A01 T00-00-53  RH  068%=      5-min Rain = 0
KPD3 131329Z 25007KT M00/M05 A3004 RMK A01 T10021054  RH  068%=      5-min Rain = 0
KPD3 131330Z 25008KT M00/M05 A3004 RMK A01 T10041054  RH  069%=      5-min Rain = 0
KPD3 131331Z 25008KT M01/M05 A3004 RMK A01 T10051054  RH  069%=      5-min Rain = 0
KPD3 131332Z 25009KT M01/M05 A3004 RMK A01 T10051053  RH  070%=      5-min Rain = 0
KPD3 131333Z 24008KT M00/M05 A3004 RMK A01 T10041053  RH  070%=      5-min Rain = 0
KPD3 131334Z 24008KT M00/M05 A3004 RMK A01 T10041053  RH  070%=      5-min Rain = 0
KPD3 131335Z 25008KT M00/M05 A3004 RMK A01 T10041052  RH  070%=      5-min Rain = 0
KPD3 131336Z 25007KT M00/M05 A3004 RMK A01 T10041052  RH  070%=      5-min Rain = 0
KPD3 131337Z 25007KT M00/M05 A3004 RMK A01 T10041053  RH  070%=      5-min Rain = 0
KPD3 131338Z 25006KT M01/M05 A3004 RMK A01 T10051053  RH  070%=      5-min Rain = 0
KPD3 131339Z 24006KT M01/M05 A3004 RMK A01 T10061054  RH  070%=      5-min Rain = 0
KPD3 131340Z 25006KT M01/M05 A3004 RMK A01 T10081054  RH  071%=      5-min Rain = 0
KPD3 131341Z 24007KT M01/M05 A3004 RMK A01 T10091054  RH  071%=      5-min Rain = 0
KPD3 131342Z 24008KT M01/M05 A3004 RMK A01 T10091054  RH  072%=      5-min Rain = 0
KPD3 131343Z 24008KT M01/M05 A3004 RMK A01 T10081053  RH  072%=      5-min Rain = 0
KPD3 131344Z 24008KT M01/M05 A3003 RMK A01 T10081053  RH  072%=      5-min Rain = 0
KPD3 131345Z 24008KT M01/M05 A3004 RMK A01 T10081053  RH  072%=      5-min Rain = 0
KPD3 131346Z 24008KT M01/M05 A3004 RMK A01 T10101054  RH  072%=      5-min Rain = 0
KPD3 131347Z 24008KT M01/M05 A3004 RMK A01 T10111054  RH  073%=      5-min Rain = 0
KPD3 131348Z 24008KT M01/M05 A3004 RMK A01 T10121054  RH  073%=      5-min Rain = 0
KPD3 131349Z 24007KT M01/M05 A3003 RMK A01 T10131054  RH  074%=      5-min Rain = 0
KPD3 131350Z 24007KT M01/M05 A3003 RMK A01 T10141053  RH  074%=      5-min Rain = 0
KPD3 131351Z 24008KT M01/M05 A3003 RMK A01 T10141053  RH  075%=      5-min Rain = 0
KPD3 131352Z 23008KT M01/M05 A3003 RMK A01 T10141053  RH  075%=      5-min Rain = 0
KPD3 131353Z 23007KT M01/M05 A3003 RMK A01 T10131051  RH  075%=      5-min Rain = 0
KPD3 131354Z 24006KT M01/M05 A3004 RMK A01 T10121052  RH  074%=      5-min Rain = 0
KPD3 131355Z 24006KT M01/M05 A3003 RMK A01 T10111052  RH  074%=      5-min Rain = 0
KPD3 131356Z 24005KT M01/M05 A3003 RMK A01 T10111052  RH  074%=      5-min Rain = 0
KPD3 131357Z 25005KT M01/M05 A3003 RMK A01 T10131054  RH  074%=      5-min Rain = 0
KPD3 131358Z 25006KT M01/M05 A3003 RMK A01 T10141054  RH  074%=      5-min Rain = 0
KPD3 131359Z 25007KT M02/M06 A3003 RMK A01 T10161055  RH  074%=      5-min Rain = 0
KPD3 131400Z 26007KT M02/M06 A3003 RMK A01 T10171055  RH  075%=      5-min Rain = 0
KPD3 131401Z 27008KT M02/M05 A3003 RMK A01 T10181054  RH  077%=      5-min Rain = 0
KPD3 131402Z 27008KT M02/M05 A3003 RMK A01 T10171051  RH  077%=      5-min Rain = 0
KPD3 131403Z 27009KT M02/M05 A3003 RMK A01 T10161050  RH  078%=      5-min Rain = 0
KPD3 131404Z 27009KT M01/M05 A3003 RMK A01 T10141049  RH  077%=      5-min Rain = 0
KPD3 131405Z 27008KT M01/M05 A3003 RMK A01 T10121048  RH  076%=      5-min Rain = 0
KPD3 131406Z 27008KT M01/M05 A3003 RMK A01 T10111048  RH  076%=      5-min Rain = 0
KPD3 131407Z 26009KT M01/M05 A3003 RMK A01 T10101049  RH  075%=      5-min Rain = 0
KPD3 131408Z 27008KT M01/M05 A3003 RMK A01 T10101048  RH  075%=      5-min Rain = 0
KPD3 131409Z 26008KT M01/M05 A3003 RMK A01 T10091048  RH  075%=      5-min Rain = 0
KPD3 131410Z 26009KT M01/M05 A3003 RMK A01 T10091048  RH  075%=      5-min Rain = 0
KPD3 131411Z 26009KT M01/M05 A3003 RMK A01 T10091049  RH  075%=      5-min Rain = 0
KPD3 131412Z 26009KT M01/M05 A3003 RMK A01 T10081048  RH  074%=      5-min Rain = 0
KPD3 131413Z 26009KT M01/M05 A3002 RMK A01 T10081048  RH  074%=      5-min Rain = 0
KPD3 131414Z 26009KT M01/M05 A3002 RMK A01 T10071047  RH  074%=      5-min Rain = 0
KPD3 131415Z 26009KT M01/M05 A3002 RMK A01 T10071047  RH  074%=      5-min Rain = 0
KPD3 131416Z 26009KT M01/M05 A3002 RMK A01 T10071048  RH  074%=      5-min Rain = 0
KPD3 131417Z 26009KT M01/M05 A3002 RMK A01 T10061047  RH  074%=      5-min Rain = 0
KPD3 131418Z 26009KT M01/M05 A3002 RMK A01 T10061047  RH  074%=      5-min Rain = 0
KPD3 131419Z 26009KT M01/M05 A3002 RMK A01 T10061047  RH  074%=      5-min Rain = 0
KPD3 131420Z 26009KT M01/M05 A3002 RMK A01 T10061047  RH  074%=      5-min Rain = 0
KPD3 131421Z 26008KT M01/M05 A3002 RMK A01 T10061047  RH  073%=      5-min Rain = 0
KPD3 131422Z 26008KT M01/M05 A3002 RMK A01 T10051047  RH  073%=      5-min Rain = 0
KPD3 131423Z 26007KT M01/M05 A3002 RMK A01 T10051047  RH  073%=      5-min Rain = 0
KPD3 131424Z 26007KT M01/M05 A3002 RMK A01 T10051047  RH  073%=      5-min Rain = 0
KPD3 131425Z 26007KT M01/M05 A3002 RMK A01 T10051047  RH  073%=      5-min Rain = 0
KPD3 131426Z 26007KT M01/M05 A3002 RMK A01 T10051047  RH  073%=      5-min Rain = 0
KPD3 131427Z 25007KT M01/M05 A3002 RMK A01 T10051047  RH  073%=      5-min Rain = 0
KPD3 131428Z 25007KT M01/M05 A3002 RMK A01 T10061047  RH  074%=      5-min Rain = 0
KPD3 131429Z 26008KT M01/M05 A3001 RMK A01 T10061047  RH  074%=      5-min Rain = 0
KPD3 131430Z 26008KT M01/M05 A3001 RMK A01 T10061047  RH  074%=      5-min Rain = 0
KPD3 131431Z 26008KT M01/M05 A3002 RMK A01 T10061046  RH  074%=      5-min Rain = 0
KPD3 131432Z 25007KT M01/M05 A3002 RMK A01 T10071046  RH  075%=      5-min Rain = 0
KPD3 131433Z 26007KT M01/M05 A3002 RMK A01 T10071047  RH  075%=      5-min Rain = 0
KPD3 131434Z 26007KT M01/M05 A3002 RMK A01 T10071046  RH  075%=      5-min Rain = 0
KPD3 131435Z 25007KT M01/M05 A3002 RMK A01 T10071046  RH  075%=      5-min Rain = 0
KPD3 131436Z 25006KT M01/M05 A3002 RMK A01 T10071046  RH  075%=      5-min Rain = 0
KPD3 131437Z 24006KT M01/M05 A3002 RMK A01 T10071045  RH  075%=      5-min Rain = 0
KPD3 131438Z 25005KT M01/M04 A3002 RMK A01 T10061044  RH  075%=      5-min Rain = 0
KPD3 131439Z 25005KT M01/M04 A3002 RMK A01 T10051044  RH  075%=      5-min Rain = 0
KPD3 131440Z 24005KT M01/M04 A3002 RMK A01 T10051044  RH  075%=      5-min Rain = 0
KPD3 131441Z 24005KT M01/M04 A3002 RMK A01 T10051044  RH  075%=      5-min Rain = 0
KPD3 131442Z 24005KT M01/M05 A3002 RMK A01 T10051045  RH  074%=      5-min Rain = 0
KPD3 131443Z 25006KT M01/M05 A3002 RMK A01 T10051045  RH  074%=      5-min Rain = 0
KPD3 131444Z 25006KT M01/M05 A3002 RMK A01 T10051046  RH  074%=      5-min Rain = 0
KPD3 131445Z 25007KT M01/M05 A3002 RMK A01 T10051046  RH  074%=      5-min Rain = 0
KPD3 131446Z 25006KT M00/M05 A3002 RMK A01 T10031045  RH  073%=      5-min Rain = 0
KPD3 131447Z 25006KT M00/M05 A3002 RMK A01 T10021045  RH  073%=      5-min Rain = 0
KPD3 131448Z 25005KT M00/M04 A3002 RMK A01 T10011044  RH  073%=      5-min Rain = 0
KPD3 131449Z 25005KT 00/04 A3002 RMK A01 T00-00-44  RH  072%=      5-min Rain = 0
KPD3 131450Z 25004KT 00/04 A3002 RMK A01 T00-00-44  RH  072%=      5-min Rain = 0
KPD3 131451Z 25004KT 00/04 A3002 RMK A01 T00-00-44  RH  072%=      5-min Rain = 0
KPD3 131452Z 25004KT M00/M04 A3001 RMK A01 T10011044  RH  072%=      5-min Rain = 0
KPD3 131453Z 25004KT M00/M04 A3001 RMK A01 T10011044  RH  073%=      5-min Rain = 0
KPD3 131454Z 25004KT M00/M04 A3002 RMK A01 T10011044  RH  072%=      5-min Rain = 0
KPD3 131455Z 25003KT M00/M05 A3002 RMK A01 T10011045  RH  072%=      5-min Rain = 0
KPD3 131456Z 25003KT M00/M05 A3002 RMK A01 T10011045  RH  073%=      5-min Rain = 0
KPD3 131457Z 25003KT M00/M04 A3002 RMK A01 T10011044  RH  073%=      5-min Rain = 0
KPD3 131458Z 26003KT M00/M04 A3002 RMK A01 T10011044  RH  073%=      5-min Rain = 0
KPD3 131459Z 27003KT M00/M04 A3002 RMK A01 T10011044  RH  073%=      5-min Rain = 0
KPD3 131500Z 27003KT 00/04 A3002 RMK A01 T00000-44  RH  072%=      5-min Rain = 0
KPD3 131501Z 27003KT 00/M04 A3002 RMK A01 T00011043  RH  072%=      5-min Rain = 0
KPD3 131502Z 27003KT 00/M04 A3002 RMK A01 T00021042  RH  072%=      5-min Rain = 0
KPD3 131503Z 27002KT 00/M04 A3002 RMK A01 T00031042  RH  072%=      5-min Rain = 0
KPD3 131504Z 27002KT 00/M04 A3002 RMK A01 T00031041  RH  072%=      5-min Rain = 0
KPD3 131505Z 27003KT 00/M04 A3002 RMK A01 T00041041  RH  072%=      5-min Rain = 0
KPD3 131506Z 28004KT 00/M04 A3002 RMK A01 T00041042  RH  071%=      5-min Rain = 0
KPD3 131507Z 28004KT 01/M04 A3002 RMK A01 T00051043  RH  070%=      5-min Rain = 0
KPD3 131508Z 27004KT 01/M04 A3002 RMK A01 T00051043  RH  070%=      5-min Rain = 0
KPD3 131509Z 27003KT 01/M04 A3002 RMK A01 T00051043  RH  070%=      5-min Rain = 0
KPD3 131510Z 26004KT 01/M04 A3002 RMK A01 T00051043  RH  070%=      5-min Rain = 0
KPD3 131511Z 26004KT 01/M04 A3002 RMK A01 T00061043  RH  070%=      5-min Rain = 0
KPD3 131512Z 25004KT 01/M04 A3002 RMK A01 T00061042  RH  070%=      5-min Rain = 0
KPD3 131513Z 24003KT 01/M04 A3002 RMK A01 T00061041  RH  071%=      5-min Rain = 0
KPD3 131514Z 24003KT 01/M04 A3001 RMK A01 T00061040  RH  071%=      5-min Rain = 0
KPD3 131515Z 23003KT 01/M04 A3001 RMK A01 T00071039  RH  071%=      5-min Rain = 0
KPD3 131516Z 23003KT 01/M04 A3002 RMK A01 T00081037  RH  072%=      5-min Rain = 0
KPD3 131517Z 22003KT 01/M04 A3002 RMK A01 T00091037  RH  071%=      5-min Rain = 0
KPD3 131518Z 22003KT 01/M04 A3001 RMK A01 T00111037  RH  070%=      5-min Rain = 0
KPD3 131519Z 21002KT 01/M04 A3001 RMK A01 T00111038  RH  070%=      5-min Rain = 0
KPD3 131520Z 22003KT 01/M04 A3001 RMK A01 T00111038  RH  070%=      5-min Rain = 0
KPD3 131521Z 21002KT 01/M04 A3001 RMK A01 T00121041  RH  068%=      5-min Rain = 0
KPD3 131522Z 22003KT 01/M04 A3001 RMK A01 T00121040  RH  068%=      5-min Rain = 0
KPD3 131523Z 22003KT 01/M04 A3001 RMK A01 T00121040  RH  068%=      5-min Rain = 0
KPD3 131524Z 21003KT 01/M04 A3001 RMK A01 T00131039  RH  069%=      5-min Rain = 0
KPD3 131525Z 22003KT 01/M04 A3001 RMK A01 T00131037  RH  069%=      5-min Rain = 0
KPD3 131526Z 23003KT 01/M04 A3001 RMK A01 T00141037  RH  069%=      5-min Rain = 0
KPD3 131527Z 24002KT 02/M04 A3001 RMK A01 T00151036  RH  069%=      5-min Rain = 0
KPD3 131528Z 23003KT 02/M04 A3001 RMK A01 T00161036  RH  069%=      5-min Rain = 0
KPD3 131529Z 23002KT 02/M04 A3001 RMK A01 T00171035  RH  068%=      5-min Rain = 0
KPD3 131530Z 23003KT 02/M03 A3001 RMK A01 T00191034  RH  068%=      5-min Rain = 0
KPD3 131531Z 24003KT 02/M03 A3001 RMK A01 T00221031  RH  068%=      5-min Rain = 0
KPD3 131532Z 24003KT 03/M03 A3001 RMK A01 T00251031  RH  067%=      5-min Rain = 0
KPD3 131533Z 23003KT 03/M03 A3001 RMK A01 T00261033  RH  065%=      5-min Rain = 0
KPD3 131534Z 23003KT 03/M03 A3001 RMK A01 T00271033  RH  065%=      5-min Rain = 0
KPD3 131535Z 24005KT 03/M03 A3001 RMK A01 T00291029  RH  066%=      5-min Rain = 0
KPD3 131536Z 24006KT 03/M03 A3001 RMK A01 T00301032  RH  064%=      5-min Rain = 0
KPD3 131537Z 25006KT 03/M03 A3001 RMK A01 T00301033  RH  063%=      5-min Rain = 0
KPD3 131538Z 26006KT 03/M03 A3001 RMK A01 T00291033  RH  063%=      5-min Rain = 0
KPD3 131539Z 26007KT 03/M04 A3001 RMK A01 T00291036  RH  062%=      5-min Rain = 0
KPD3 131540Z 26006KT 03/M04 A3001 RMK A01 T00281038  RH  062%=      5-min Rain = 0
KPD3 131541Z 27005KT 03/M04 A3001 RMK A01 T00261039  RH  062%=      5-min Rain = 0
KPD3 131542Z 27005KT 03/M04 A3001 RMK A01 T00261038  RH  063%=      5-min Rain = 0
KPD3 131543Z 26006KT 03/M04 A3001 RMK A01 T00251039  RH  062%=      5-min Rain = 0
KPD3 131544Z 26005KT 03/M04 A3001 RMK A01 T00271039  RH  062%=      5-min Rain = 0
KPD3 131545Z 26005KT 03/M04 A3001 RMK A01 T00291037  RH  062%=      5-min Rain = 0
KPD3 131546Z 26006KT 03/M04 A3001 RMK A01 T00301036  RH  062%=      5-min Rain = 0
KPD3 131547Z 26007KT 03/M04 A3001 RMK A01 T00321036  RH  061%=      5-min Rain = 0
KPD3 131548Z 26008KT 03/M04 A3001 RMK A01 T00321036  RH  061%=      5-min Rain = 0
KPD3 131549Z 25008KT 03/M04 A3001 RMK A01 T00331036  RH  060%=      5-min Rain = 0
KPD3 131550Z 26009KT 04/M04 A3001 RMK A01 T00351035  RH  060%=      5-min Rain = 0
KPD3 131551Z 26009KT 04/M04 A3001 RMK A01 T00361036  RH  059%=      5-min Rain = 0
KPD3 131552Z 26008KT 04/M04 A3001 RMK A01 T00371037  RH  059%=      5-min Rain = 0
KPD3 131553Z 27007KT 04/M04 A3001 RMK A01 T00371038  RH  058%=      5-min Rain = 0
KPD3 131554Z 27008KT 04/M04 A3001 RMK A01 T00381037  RH  058%=      5-min Rain = 0
KPD3 131555Z 27007KT 04/M04 A3001 RMK A01 T00391038  RH  057%=      5-min Rain = 0
KPD3 131556Z 26006KT 04/M04 A3002 RMK A01 T00391037  RH  058%=      5-min Rain = 0
KPD3 131557Z 26007KT 04/M04 A3002 RMK A01 T00391036  RH  058%=      5-min Rain = 0
KPD3 131558Z 27008KT 04/M04 A3002 RMK A01 T00381039  RH  057%=      5-min Rain = 0
KPD3 131559Z 26009KT 04/M04 A3002 RMK A01 T00361042  RH  057%=      5-min Rain = 0
KPD3 131600Z 27008KT 04/M04 A3002 RMK A01 T00351042  RH  057%=      5-min Rain = 0
KPD3 131601Z 27007KT 04/M04 A3002 RMK A01 T00351040  RH  058%=      5-min Rain = 0
KPD3 131602Z 27007KT 04/M04 A3002 RMK A01 T00371036  RH  059%=      5-min Rain = 0
KPD3 131603Z 27006KT 04/M03 A3002 RMK A01 T00401033  RH  059%=      5-min Rain = 0
KPD3 131604Z 27009KT 04/M03 A3002 RMK A01 T00431032  RH  058%=      5-min Rain = 0
KPD3 131605Z 27009KT 04/M04 A3002 RMK A01 T00441036  RH  056%=      5-min Rain = 0
KPD3 131606Z 26009KT 04/M04 A3001 RMK A01 T00441035  RH  056%=      5-min Rain = 0
KPD3 131607Z 26009KT 05/M03 A3001 RMK A01 T00451034  RH  056%=      5-min Rain = 0
KPD3 131608Z 26009KT 05/M03 A3001 RMK A01 T00461034  RH  056%=      5-min Rain = 0
KPD3 131609Z 26009KT 05/M03 A3001 RMK A01 T00481032  RH  056%=      5-min Rain = 0
KPD3 131610Z 26010KT 05/M03 A3001 RMK A01 T00491033  RH  055%=      5-min Rain = 0
KPD3 131611Z 26011KT 05/M04 A3001 RMK A01 T00491035  RH  055%=      5-min Rain = 0
KPD3 131612Z 26010KT 05/M04 A3001 RMK A01 T00481036  RH  055%=      5-min Rain = 0
KPD3 131613Z 26010KT 05/M04 A3001 RMK A01 T00481036  RH  055%=      5-min Rain = 0
KPD3 131614Z 26009KT 05/M04 A3001 RMK A01 T00481035  RH  055%=      5-min Rain = 0
KPD3 131615Z 26009KT 05/M03 A3001 RMK A01 T00491032  RH  056%=      5-min Rain = 0
KPD3 131616Z 26010KT 05/M03 A3001 RMK A01 T00511034  RH  054%=      5-min Rain = 0
KPD3 131617Z 26010KT 05/M04 A3001 RMK A01 T00501035  RH  054%=      5-min Rain = 0
KPD3 131618Z 25010KT 05/M04 A3001 RMK A01 T00511035  RH  054%=      5-min Rain = 0
KPD3 131619Z 25010KT 05/M03 A3001 RMK A01 T00521034  RH  054%=      5-min Rain = 0
KPD3 131620Z 25010KT 05/M04 A3001 RMK A01 T00531035  RH  053%=      5-min Rain = 0
KPD3 131621Z 25011KT 05/M03 A3001 RMK A01 T00541033  RH  053%=      5-min Rain = 0
KPD3 131622Z 26010KT 06/M03 A3001 RMK A01 T00551034  RH  053%=      5-min Rain = 0
KPD3 131623Z 25010KT 06/M03 A3001 RMK A01 T00561033  RH  053%=      5-min Rain = 0
KPD3 131624Z 26008KT 06/M03 A3001 RMK A01 T00571033  RH  052%=      5-min Rain = 0
KPD3 131625Z 26009KT 06/M03 A3001 RMK A01 T00601030  RH  052%=      5-min Rain = 0
KPD3 131626Z 26011KT 06/M03 A3001 RMK A01 T00621033  RH  051%=      5-min Rain = 0
KPD3 131627Z 26010KT 06/M04 A3001 RMK A01 T00611036  RH  050%=      5-min Rain = 0
KPD3 131628Z 26010KT 06/M04 A3001 RMK A01 T00611035  RH  050%=      5-min Rain = 0
KPD3 131629Z 26010KT 06/M04 A3001 RMK A01 T00611036  RH  050%=      5-min Rain = 0
KPD3 131630Z 26010KT 06/M04 A3001 RMK A01 T00611037  RH  049%=      5-min Rain = 0
KPD3 131631Z 26009KT 06/M04 A3001 RMK A01 T00621036  RH  049%=      5-min Rain = 0
KPD3 131632Z 26009KT 06/M03 A3001 RMK A01 T00641034  RH  050%=      5-min Rain = 0
KPD3 131633Z 27010KT 07/M04 A3001 RMK A01 T00651035  RH  049%=      5-min Rain = 0
KPD3 131634Z 25010KT 07/M04 A3001 RMK A01 T00651035  RH  049%=      5-min Rain = 0
KPD3 131635Z 26010KT 06/M03 A3001 RMK A01 T00641034  RH  049%=      5-min Rain = 0
KPD3 131636Z 26010KT 07/M03 A3001 RMK A01 T00651034  RH  049%=      5-min Rain = 0
KPD3 131637Z 25010KT 06/M03 A3001 RMK A01 T00641034  RH  050%=      5-min Rain = 0
KPD3 131638Z 26009KT 07/M03 A3001 RMK A01 T00651033  RH  049%=      5-min Rain = 0
KPD3 131639Z 27007KT 07/M03 A3001 RMK A01 T00661033  RH  049%=      5-min Rain = 0
KPD3 131640Z 27007KT 07/M03 A3002 RMK A01 T00691032  RH  049%=      5-min Rain = 0
KPD3 131641Z 30007KT 07/M03 A3002 RMK A01 T00711032  RH  048%=      5-min Rain = 0
KPD3 131642Z 35004KT 07/M03 A3002 RMK A01 T00731026  RH  050%=      5-min Rain = 0
KPD3 131643Z 33002KT 07/M02 A3002 RMK A01 T00741022  RH  051%=      5-min Rain = 0
KPD3 131644Z 33004KT 08/M02 A3001 RMK A01 T00751023  RH  050%=      5-min Rain = 0
KPD3 131645Z 34003KT 08/M02 A3001 RMK A01 T00761023  RH  050%=      5-min Rain = 0
KPD3 131646Z 35003KT 08/M02 A3001 RMK A01 T00761022  RH  050%=      5-min Rain = 0
KPD3 131647Z 01004KT 08/M02 A3001 RMK A01 T00751022  RH  050%=      5-min Rain = 0
KPD3 131648Z 02005KT 08/M02 A3001 RMK A01 T00751023  RH  050%=      5-min Rain = 0
KPD3 131649Z 34005KT 08/M02 A3001 RMK A01 T00751022  RH  050%=      5-min Rain = 0
KPD3 131650Z 32003KT 08/M03 A3001 RMK A01 T00751025  RH  049%=      5-min Rain = 0
KPD3 131651Z 31003KT 08/M03 A3001 RMK A01 T00751025  RH  049%=      5-min Rain = 0
KPD3 131652Z 30003KT 08/M03 A3001 RMK A01 T00761025  RH  049%=      5-min Rain = 0
KPD3 131653Z 27003KT 08/M03 A3001 RMK A01 T00771029  RH  047%=      5-min Rain = 0
KPD3 131654Z 31003KT 08/M03 A3001 RMK A01 T00771027  RH  048%=      5-min Rain = 0
KPD3 131655Z 30003KT 08/M03 A3001 RMK A01 T00791027  RH  047%=      5-min Rain = 0
KPD3 131656Z 28005KT 08/M03 A3001 RMK A01 T00791031  RH  046%=      5-min Rain = 0
KPD3 131657Z 27005KT 08/M03 A3001 RMK A01 T00811031  RH  045%=      5-min Rain = 0
KPD3 131658Z 26006KT 08/M03 A3001 RMK A01 T00811030  RH  045%=      5-min Rain = 0
KPD3 131659Z 26004KT 08/M03 A30 RMK A01 T00831028  RH  046%=      5-min Rain = 0
KPD3 131700Z 28003KT 08/M03 A30 RMK A01 T00841028  RH  045%=      5-min Rain = 0
KPD3 131701Z 27002KT 08/M03 A30 RMK A01 T00841027  RH  045%=      5-min Rain = 0
KPD3 131702Z 27003KT 09/M03 A30 RMK A01 T00861025  RH  046%=      5-min Rain = 0
KPD3 131703Z 26005KT 09/M03 A30 RMK A01 T00881027  RH  044%=      5-min Rain = 0
KPD3 131704Z 27007KT 09/M03 A30 RMK A01 T00901031  RH  043%=      5-min Rain = 0
KPD3 131705Z 26008KT 09/M04 A30 RMK A01 T00871036  RH  042%=      5-min Rain = 0
KPD3 131706Z 27007KT 08/M04 A30 RMK A01 T00841037  RH  042%=      5-min Rain = 0
KPD3 131707Z 26008KT 08/M04 A30 RMK A01 T00801038  RH  043%=      5-min Rain = 0
KPD3 131708Z 26008KT 08/M04 A3001 RMK A01 T00781038  RH  044%=      5-min Rain = 0
KPD3 131709Z 25007KT 08/M04 A3001 RMK A01 T00771038  RH  044%=      5-min Rain = 0
KPD3 131710Z 25007KT 08/M04 A3001 RMK A01 T00761037  RH  045%=      5-min Rain = 0
KPD3 131711Z 25007KT 08/M04 A3001 RMK A01 T00761036  RH  045%=      5-min Rain = 0
KPD3 131712Z 25008KT 08/M04 A3001 RMK A01 T00771037  RH  044%=      5-min Rain = 0
KPD3 131713Z 26008KT 08/M04 A3001 RMK A01 T00791035  RH  044%=      5-min Rain = 0
KPD3 131714Z 26007KT 08/M04 A3001 RMK A01 T00801038  RH  043%=      5-min Rain = 0
KPD3 131715Z 26007KT 08/M04 A3001 RMK A01 T00811035  RH  044%=      5-min Rain = 0
KPD3 131716Z 26009KT 08/M03 A3001 RMK A01 T00841033  RH  043%=      5-min Rain = 0
KPD3 131717Z 26009KT 09/M04 A3001 RMK A01 T00861035  RH  042%=      5-min Rain = 0
KPD3 131718Z 26008KT 08/M04 A3001 RMK A01 T00841037  RH  042%=      5-min Rain = 0
KPD3 131719Z 26010KT 09/M04 A3001 RMK A01 T00851036  RH  042%=      5-min Rain = 0
KPD3 131720Z 26010KT 09/M04 A3001 RMK A01 T00851037  RH  042%=      5-min Rain = 0
KPD3 131721Z 26012KT 09/M04 A3001 RMK A01 T00861037  RH  042%=      5-min Rain = 0
KPD3 131722Z 27011KT 09/M04 A3001 RMK A01 T00861038  RH  041%=      5-min Rain = 0
KPD3 131723Z 27011KT 09/M04 A3001 RMK A01 T00861039  RH  041%=      5-min Rain = 0
KPD3 131724Z 27011KT 09/M04 A3001 RMK A01 T00861038  RH  041%=      5-min Rain = 0
KPD3 131725Z 26011KT 09/M04 A3001 RMK A01 T00871037  RH  041%=      5-min Rain = 0
KPD3 131726Z 27009KT 09/M04 A3001 RMK A01 T00881035  RH  042%=      5-min Rain = 0
KPD3 131727Z 27009KT 09/M04 A3001 RMK A01 T00891035  RH  042%=      5-min Rain = 0
KPD3 131728Z 26009KT 09/M03 A3001 RMK A01 T00891034  RH  042%=      5-min Rain = 0
KPD3 131729Z 27009KT 09/M03 A30 RMK A01 T00901034  RH  042%=      5-min Rain = 0
KPD3 131730Z 26010KT 09/M03 A30 RMK A01 T00901034  RH  041%=      5-min Rain = 0
KPD3 131731Z 26009KT 09/M03 A30 RMK A01 T00921034  RH  041%=      5-min Rain = 0
KPD3 131732Z 26009KT 09/M03 A30 RMK A01 T00931034  RH  041%=      5-min Rain = 0
KPD3 131733Z 26010KT 10/M03 A30 RMK A01 T00951034  RH  040%=      5-min Rain = 0
KPD3 131734Z 26007KT 09/M03 A30 RMK A01 T00941034  RH  040%=      5-min Rain = 0
KPD3 131735Z 26009KT 10/M03 A30 RMK A01 T00981031  RH  040%=      5-min Rain = 0
KPD3 131736Z 26007KT 10/M03 A30 RMK A01 T00991033  RH  039%=      5-min Rain = 0
KPD3 131737Z 26008KT 10/M03 A30 RMK A01 T01011032  RH  039%=      5-min Rain = 0
KPD3 131738Z 26008KT 10/M04 A30 RMK A01 T01011036  RH  038%=      5-min Rain = 0
KPD3 131739Z 25010KT 10/M04 A30 RMK A01 T01001037  RH  038%=      5-min Rain = 0
KPD3 131740Z 25009KT 10/M04 A30 RMK A01 T00991037  RH  038%=      5-min Rain = 0
KPD3 131741Z 25009KT 10/M04 A30 RMK A01 T01001036  RH  038%=      5-min Rain = 0
KPD3 131742Z 26009KT 10/M04 A30 RMK A01 T01011036  RH  038%=      5-min Rain = 0
KPD3 131743Z 26008KT 10/M04 A2999 RMK A01 T01021038  RH  037%=      5-min Rain = 0
KPD3 131744Z 26009KT 10/M04 A2999 RMK A01 T01021037  RH  037%=      5-min Rain = 0
KPD3 131745Z 25008KT 10/M04 A2999 RMK A01 T01031039  RH  037%=      5-min Rain = 0
KPD3 131746Z 24010KT 10/M04 A2999 RMK A01 T01041035  RH  037%=      5-min Rain = 0
KPD3 131747Z 25011KT 10/M04 A2999 RMK A01 T01031036  RH  037%=      5-min Rain = 0
KPD3 131748Z 26010KT 10/M03 A2999 RMK A01 T01041034  RH  038%=      5-min Rain = 0
KPD3 131749Z 27010KT 11/M04 A2999 RMK A01 T01061038  RH  036%=      5-min Rain = 0
KPD3 131750Z 27009KT 11/M04 A2999 RMK A01 T01061040  RH  036%=      5-min Rain = 0
KPD3 131751Z 26009KT 11/M04 A2998 RMK A01 T01071037  RH  036%=      5-min Rain = 0
KPD3 131752Z 26009KT 11/M03 A2998 RMK A01 T01091033  RH  037%=      5-min Rain = 0
KPD3 131753Z 26010KT 11/M04 A2998 RMK A01 T01091035  RH  036%=      5-min Rain = 0
KPD3 131754Z 25009KT 11/M04 A2998 RMK A01 T01081037  RH  036%=      5-min Rain = 0
KPD3 131755Z 26010KT 11/M03 A2998 RMK A01 T01091032  RH  037%=      5-min Rain = 0
KPD3 131756Z 26008KT 11/M03 A2998 RMK A01 T01111032  RH  037%=      5-min Rain = 0
KPD3 131757Z 27010KT 11/M03 A2998 RMK A01 T01121033  RH  036%=      5-min Rain = 0
KPD3 131758Z 27009KT 11/M04 A2998 RMK A01 T01121040  RH  034%=      5-min Rain = 0
KPD3 131759Z 26009KT 11/M04 A2998 RMK A01 T01101042  RH  034%=      5-min Rain = 0
KPD3 131800Z 27009KT 11/M04 A2998 RMK A01 T01101039  RH  035%=      5-min Rain = 0
KPD3 131801Z 27009KT 11/M04 A2998 RMK A01 T01101039  RH  035%=      5-min Rain = 0
KPD3 131802Z 27008KT 11/M04 A2998 RMK A01 T01111038  RH  035%=      5-min Rain = 0
KPD3 131803Z 26009KT 11/M04 A2997 RMK A01 T01131036  RH  035%=      5-min Rain = 0
KPD3 131804Z 27009KT 12/M03 A2997 RMK A01 T01161034  RH  035%=      5-min Rain = 0
KPD3 131805Z 26008KT 12/M04 A2997 RMK A01 T01171037  RH  034%=      5-min Rain = 0
KPD3 131806Z 26010KT 12/M04 A2997 RMK A01 T01161035  RH  034%=      5-min Rain = 0
KPD3 131807Z 27010KT 12/M04 A2997 RMK A01 T01171035  RH  034%=      5-min Rain = 0
KPD3 131808Z 27010KT 12/M04 A2997 RMK A01 T01161036  RH  034%=      5-min Rain = 0
KPD3 131809Z 27011KT 12/M04 A2997 RMK A01 T01171037  RH  034%=      5-min Rain = 0
KPD3 131810Z 27010KT 12/M04 A2997 RMK A01 T01161038  RH  034%=      5-min Rain = 0
KPD3 131811Z 27010KT 12/M04 A2997 RMK A01 T01161037  RH  034%=      5-min Rain = 0
KPD3 131812Z 27011KT 12/M04 A2997 RMK A01 T01191035  RH  034%=      5-min Rain = 0
KPD3 131813Z 27012KT 12/M04 A2997 RMK A01 T01191037  RH  033%=      5-min Rain = 0
KPD3 131814Z 27011KT 12/M04 A2997 RMK A01 T01191037  RH  034%=      5-min Rain = 0
KPD3 131815Z 27011KT 12/M04 A2997 RMK A01 T01181037  RH  034%=      5-min Rain = 0
KPD3 131816Z 27009KT 12/M04 A2997 RMK A01 T01171038  RH  034%=      5-min Rain = 0
KPD3 131817Z 27009KT 12/M04 A2997 RMK A01 T01171036  RH  034%=      5-min Rain = 0
KPD3 131818Z 27009KT 12/M04 A2996 RMK A01 T01181037  RH  034%=      5-min Rain = 0
KPD3 131819Z 27008KT 12/M04 A2996 RMK A01 T01191035  RH  034%=      5-min Rain = 0
KPD3 131820Z 25007KT 12/M03 A2996 RMK A01 T01191034  RH  034%=      5-min Rain = 0
KPD3 131821Z 27006KT 12/M04 A2996 RMK A01 T01211035  RH  034%=      5-min Rain = 0
KPD3 131822Z 26006KT 12/M03 A2996 RMK A01 T01221034  RH  034%=      5-min Rain = 0
KPD3 131823Z 26007KT 12/M03 A2996 RMK A01 T01241032  RH  034%=      5-min Rain = 0
KPD3 131824Z 25007KT 13/M03 A2995 RMK A01 T01251034  RH  033%=      5-min Rain = 0
KPD3 131825Z 25006KT 12/M04 A2995 RMK A01 T01231037  RH  033%=      5-min Rain = 0
KPD3 131826Z 25006KT 12/M03 A2995 RMK A01 T01221034  RH  033%=      5-min Rain = 0
KPD3 131827Z 25006KT 12/M03 A2995 RMK A01 T01231034  RH  033%=      5-min Rain = 0
KPD3 131828Z 25006KT 12/M03 A2995 RMK A01 T01231033  RH  034%=      5-min Rain = 0
KPD3 131829Z 26007KT 13/M03 A2995 RMK A01 T01251032  RH  033%=      5-min Rain = 0
KPD3 131830Z 25006KT 12/M04 A2995 RMK A01 T01241035  RH  033%=      5-min Rain = 0
KPD3 131831Z 24005KT 12/M04 A2995 RMK A01 T01231035  RH  033%=      5-min Rain = 0
KPD3 131832Z 24006KT 12/M04 A2994 RMK A01 T01221036  RH  033%=      5-min Rain = 0
KPD3 131833Z 23006KT 12/M03 A2994 RMK A01 T01221033  RH  034%=      5-min Rain = 0
KPD3 131834Z 24007KT 12/M03 A2994 RMK A01 T01221032  RH  034%=      5-min Rain = 0
KPD3 131835Z 24007KT 12/M03 A2994 RMK A01 T01231033  RH  033%=      5-min Rain = 0
KPD3 131836Z 25007KT 12/M03 A2994 RMK A01 T01231033  RH  034%=      5-min Rain = 0
KPD3 131837Z 25006KT 12/M03 A2994 RMK A01 T01231032  RH  034%=      5-min Rain = 0
KPD3 131838Z 23007KT 12/M03 A2994 RMK A01 T01241033  RH  033%=      5-min Rain = 0
KPD3 131839Z 25006KT 12/M03 A2993 RMK A01 T01241030  RH  034%=      5-min Rain = 0
KPD3 131840Z 25006KT 13/M03 A2993 RMK A01 T01261030  RH  034%=      5-min Rain = 0
KPD3 131841Z 23004KT 13/M03 A2993 RMK A01 T01261033  RH  033%=      5-min Rain = 0
KPD3 131842Z 24006KT 13/M03 A2993 RMK A01 T01261031  RH  033%=      5-min Rain = 0
KPD3 131843Z 24006KT 13/M03 A2993 RMK A01 T01271031  RH  033%=      5-min Rain = 0
KPD3 131844Z 24006KT 13/M03 A2993 RMK A01 T01271031  RH  033%=      5-min Rain = 0
KPD3 131845Z 23005KT 13/M03 A2993 RMK A01 T01281030  RH  033%=      5-min Rain = 0
KPD3 131846Z 24005KT 13/M03 A2993 RMK A01 T01291030  RH  033%=      5-min Rain = 0
KPD3 131847Z 22005KT 13/M03 A2993 RMK A01 T01291030  RH  033%=      5-min Rain = 0
KPD3 131848Z 23006KT 13/M03 A2992 RMK A01 T01311028  RH  033%=      5-min Rain = 0
KPD3 131849Z 23008KT 13/M03 A2992 RMK A01 T01311030  RH  032%=      5-min Rain = 0
KPD3 131850Z 23009KT 13/M03 A2992 RMK A01 T01291032  RH  032%=      5-min Rain = 0
KPD3 131851Z 24007KT 13/M03 A2992 RMK A01 T01281031  RH  033%=      5-min Rain = 0
KPD3 131852Z 23005KT 13/M03 A2992 RMK A01 T01281033  RH  032%=      5-min Rain = 0
KPD3 131853Z 23008KT 13/M03 A2992 RMK A01 T01281031  RH  033%=      5-min Rain = 0
KPD3 131854Z 23007KT 13/M03 A2992 RMK A01 T01291032  RH  033%=      5-min Rain = 0
KPD3 131855Z 23007KT 13/M03 A2992 RMK A01 T01291029  RH  033%=      5-min Rain = 0
KPD3 131856Z 23006KT 13/M03 A2992 RMK A01 T01311031  RH  032%=      5-min Rain = 0
KPD3 131857Z 25007KT 13/M03 A2992 RMK A01 T01321030  RH  032%=      5-min Rain = 0
KPD3 131858Z 24005KT 13/M03 A2992 RMK A01 T01321032  RH  032%=      5-min Rain = 0
KPD3 131859Z 26006KT 13/M03 A2992 RMK A01 T01331031  RH  032%=      5-min Rain = 0
KPD3 131900Z 24005KT 13/M03 A2992 RMK A01 T01341031  RH  032%=      5-min Rain = 0
KPD3 131901Z 24005KT 14/M03 A2992 RMK A01 T01351030  RH  032%=      5-min Rain = 0
KPD3 131902Z 23006KT 14/M03 A2992 RMK A01 T01351031  RH  031%=      5-min Rain = 0
KPD3 131903Z 22005KT 13/M03 A2991 RMK A01 T01341033  RH  031%=      5-min Rain = 0
KPD3 131904Z 23006KT 13/M03 A2991 RMK A01 T01331031  RH  032%=      5-min Rain = 0
KPD3 131905Z 24006KT 13/M03 A2991 RMK A01 T01341032  RH  031%=      5-min Rain = 0
KPD3 131906Z 24005KT 14/M03 A2991 RMK A01 T01351029  RH  032%=      5-min Rain = 0
KPD3 131907Z 22007KT 14/M03 A2991 RMK A01 T01361028  RH  032%=      5-min Rain = 0
KPD3 131908Z 23006KT 14/M03 A2991 RMK A01 T01371030  RH  031%=      5-min Rain = 0
KPD3 131909Z 24007KT 14/M03 A2991 RMK A01 T01371030  RH  031%=      5-min Rain = 0
KPD3 131910Z 23006KT 14/M03 A2991 RMK A01 T01381029  RH  031%=      5-min Rain = 0
KPD3 131911Z 25007KT 14/M03 A2991 RMK A01 T01391031  RH  031%=      5-min Rain = 0
KPD3 131912Z 24007KT 14/M03 A2991 RMK A01 T01391030  RH  031%=      5-min Rain = 0
KPD3 131913Z 24006KT 14/M03 A2991 RMK A01 T01391031  RH  031%=      5-min Rain = 0
KPD3 131914Z 24007KT 14/M03 A2991 RMK A01 T01381032  RH  031%=      5-min Rain = 0
KPD3 131915Z 23006KT 14/M03 A2991 RMK A01 T01371031  RH  031%=      5-min Rain = 0
KPD3 131916Z 22004KT 14/M03 A2991 RMK A01 T01381029  RH  031%=      5-min Rain = 0
KPD3 131917Z 24004KT 14/M03 A2991 RMK A01 T01391028  RH  031%=      5-min Rain = 0
KPD3 131918Z 23008KT 14/M03 A2991 RMK A01 T01431025  RH  031%=      5-min Rain = 0
KPD3 131919Z 24008KT 14/M03 A299 RMK A01 T01431029  RH  030%=      5-min Rain = 0
KPD3 131920Z 24006KT 14/M03 A299 RMK A01 T01411032  RH  030%=      5-min Rain = 0
KPD3 131921Z 25007KT 14/M03 A299 RMK A01 T01401031  RH  030%=      5-min Rain = 0
KPD3 131922Z 25006KT 14/M03 A299 RMK A01 T01401030  RH  031%=      5-min Rain = 0
KPD3 131923Z 24004KT 14/M03 A299 RMK A01 T01411030  RH  031%=      5-min Rain = 0
KPD3 131924Z 23005KT 14/M03 A299 RMK A01 T01431026  RH  031%=      5-min Rain = 0
KPD3 131925Z 22004KT 15/M03 A299 RMK A01 T01461026  RH  031%=      5-min Rain = 0
KPD3 131926Z 21003KT 15/M03 A299 RMK A01 T01461027  RH  030%=      5-min Rain = 0
KPD3 131927Z 22005KT 15/M02 A299 RMK A01 T01481024  RH  031%=      5-min Rain = 0
KPD3 131928Z 22007KT 15/M03 A2989 RMK A01 T01501025  RH  030%=      5-min Rain = 0
KPD3 131929Z 23006KT 15/M03 A2989 RMK A01 T01491027  RH  030%=      5-min Rain = 0
KPD3 131930Z 23005KT 15/M03 A2989 RMK A01 T01471030  RH  029%=      5-min Rain = 0
KPD3 131931Z 20005KT 15/M03 A2989 RMK A01 T01461025  RH  030%=      5-min Rain = 0
KPD3 131932Z 21005KT 15/M02 A2989 RMK A01 T01491024  RH  030%=      5-min Rain = 0
KPD3 131933Z 23004KT 15/M02 A2989 RMK A01 T01511023  RH  030%=      5-min Rain = 0
KPD3 131934Z 25004KT 15/M03 A2989 RMK A01 T01521025  RH  030%=      5-min Rain = 0
KPD3 131935Z 24006KT 15/M03 A2989 RMK A01 T01521027  RH  029%=      5-min Rain = 0
KPD3 131936Z 23007KT 15/M03 A2989 RMK A01 T01521027  RH  029%=      5-min Rain = 0
KPD3 131937Z 24007KT 15/M03 A2989 RMK A01 T01501029  RH  029%=      5-min Rain = 0
KPD3 131938Z 25005KT 15/M03 A2989 RMK A01 T01481028  RH  029%=      5-min Rain = 0
KPD3 131939Z 24004KT 15/M03 A2989 RMK A01 T01481026  RH  030%=      5-min Rain = 0
KPD3 131940Z 22005KT 15/M02 A2989 RMK A01 T01511023  RH  030%=      5-min Rain = 0
KPD3 131941Z 22006KT 15/M03 A2989 RMK A01 T01521028  RH  029%=      5-min Rain = 0
KPD3 131942Z 22006KT 15/M03 A2989 RMK A01 T01511029  RH  029%=      5-min Rain = 0
KPD3 131943Z 21004KT 15/M03 A2989 RMK A01 T01501028  RH  029%=      5-min Rain = 0
KPD3 131944Z 20004KT 15/M03 A2989 RMK A01 T01501028  RH  029%=      5-min Rain = 0
KPD3 131945Z 20005KT 15/M03 A2988 RMK A01 T01511029  RH  029%=      5-min Rain = 0
KPD3 131946Z 18003KT 15/M03 A2988 RMK A01 T01511028  RH  029%=      5-min Rain = 0
KPD3 131947Z 17004KT 15/M03 A2988 RMK A01 T01521029  RH  029%=      5-min Rain = 0
KPD3 131948Z 17003KT 15/M03 A2988 RMK A01 T01521029  RH  029%=      5-min Rain = 0
KPD3 131949Z 20004KT 15/M03 A2988 RMK A01 T01531028  RH  029%=      5-min Rain = 0
KPD3 131950Z 24005KT 15/M03 A2988 RMK A01 T01541025  RH  029%=      5-min Rain = 0
KPD3 131951Z 22006KT 16/M03 A2988 RMK A01 T01561027  RH  028%=      5-min Rain = 0
KPD3 131952Z 21005KT 15/M03 A2988 RMK A01 T01541031  RH  028%=      5-min Rain = 0
KPD3 131953Z 20005KT 15/M03 A2988 RMK A01 T01521029  RH  029%=      5-min Rain = 0
KPD3 131954Z 21004KT 15/M03 A2988 RMK A01 T01521027  RH  029%=      5-min Rain = 0
KPD3 131955Z 21004KT 15/M03 A2988 RMK A01 T01541026  RH  029%=      5-min Rain = 0
KPD3 131956Z 20004KT 16/M03 A2987 RMK A01 T01561026  RH  029%=      5-min Rain = 0
KPD3 131957Z 21006KT 16/M03 A2987 RMK A01 T01551028  RH  028%=      5-min Rain = 0
KPD3 131958Z 24006KT 16/M03 A2987 RMK A01 T01561026  RH  028%=      5-min Rain = 0
KPD3 131959Z 22005KT 16/M03 A2987 RMK A01 T01591026  RH  028%=      5-min Rain = 0
KPD3 132000Z 24003KT 16/M03 A2987 RMK A01 T01591027  RH  028%=      5-min Rain = 0
KPD3 132001Z 24003KT 16/M03 A2987 RMK A01 T01581030  RH  027%=      5-min Rain = 0
KPD3 132002Z 23006KT 16/M03 A2987 RMK A01 T01581029  RH  027%=      5-min Rain = 0
KPD3 132003Z 23004KT 16/M03 A2987 RMK A01 T01581028  RH  028%=      5-min Rain = 0
KPD3 132004Z 24005KT 16/M03 A2987 RMK A01 T01591025  RH  028%=      5-min Rain = 0
KPD3 132005Z 25005KT 16/M03 A2987 RMK A01 T01611025  RH  028%=      5-min Rain = 0
KPD3 132006Z 24007KT 16/M03 A2987 RMK A01 T01611029  RH  027%=      5-min Rain = 0
KPD3 132007Z 22007KT 16/M03 A2987 RMK A01 T01601029  RH  027%=      5-min Rain = 0
KPD3 132008Z 20007KT 16/M03 A2987 RMK A01 T01601029  RH  027%=      5-min Rain = 0
KPD3 132009Z 22004KT 16/M03 A2987 RMK A01 T01591030  RH  027%=      5-min Rain = 0
KPD3 132010Z 24007KT 16/M03 A2987 RMK A01 T01601029  RH  027%=      5-min Rain = 0
KPD3 132011Z 23006KT 16/M03 A2987 RMK A01 T01601032  RH  027%=      5-min Rain = 0
KPD3 132012Z 24007KT 16/M03 A2987 RMK A01 T01601032  RH  027%=      5-min Rain = 0
KPD3 132013Z 23005KT 16/M03 A2987 RMK A01 T01601034  RH  026%=      5-min Rain = 0
KPD3 132014Z 25006KT 16/M04 A2987 RMK A01 T01591035  RH  026%=      5-min Rain = 0
KPD3 132015Z 23008KT 16/M03 A2987 RMK A01 T01601033  RH  026%=      5-min Rain = 0
KPD3 132016Z 22006KT 16/M03 A2987 RMK A01 T01621034  RH  026%=      5-min Rain = 0
KPD3 132017Z 23006KT 16/M04 A2987 RMK A01 T01611035  RH  026%=      5-min Rain = 0
KPD3 132018Z 21006KT 16/M04 A2987 RMK A01 T01611037  RH  025%=      5-min Rain = 0
KPD3 132019Z 21006KT 16/M04 A2987 RMK A01 T01601038  RH  025%=      5-min Rain = 0
KPD3 132020Z 22006KT 16/M04 A2987 RMK A01 T01601037  RH  026%=      5-min Rain = 0
KPD3 132021Z 20006KT 16/M04 A2987 RMK A01 T01601036  RH  026%=      5-min Rain = 0
KPD3 132022Z 20006KT 16/M03 A2987 RMK A01 T01621032  RH  026%=      5-min Rain = 0
KPD3 132023Z 20006KT 16/M03 A2987 RMK A01 T01641034  RH  025%=      5-min Rain = 0
KPD3 132024Z 22006KT 16/M04 A2987 RMK A01 T01641036  RH  025%=      5-min Rain = 0
KPD3 132025Z 21006KT 16/M04 A2987 RMK A01 T01641038  RH  025%=      5-min Rain = 0
KPD3 132026Z 20004KT 16/M04 A2987 RMK A01 T01631037  RH  025%=      5-min Rain = 0
KPD3 132027Z 22005KT 16/M04 A2987 RMK A01 T01641036  RH  025%=      5-min Rain = 0
KPD3 132028Z 21006KT 17/M04 A2987 RMK A01 T01651037  RH  025%=      5-min Rain = 0
KPD3 132029Z 22007KT 17/M04 A2987 RMK A01 T01651038  RH  025%=      5-min Rain = 0
KPD3 132030Z 22006KT 16/M04 A2987 RMK A01 T01641038  RH  025%=      5-min Rain = 0
KPD3 132031Z 23005KT 16/M04 A2987 RMK A01 T01641039  RH  025%=      5-min Rain = 0
KPD3 132032Z 23004KT 16/M04 A2987 RMK A01 T01641038  RH  025%=      5-min Rain = 0
KPD3 132033Z 23005KT 17/M04 A2987 RMK A01 T01661037  RH  025%=      5-min Rain = 0
KPD3 132034Z 25005KT 17/M04 A2987 RMK A01 T01681035  RH  025%=      5-min Rain = 0
KPD3 132035Z 26008KT 17/M04 A2987 RMK A01 T01701038  RH  024%=      5-min Rain = 0
KPD3 132036Z 26007KT 17/M04 A2987 RMK A01 T01701041  RH  023%=      5-min Rain = 0
KPD3 132037Z 26005KT 17/M04 A2987 RMK A01 T01691043  RH  023%=      5-min Rain = 0
KPD3 132038Z 26006KT 17/M04 A2987 RMK A01 T01691039  RH  024%=      5-min Rain = 0
KPD3 132039Z 25007KT 17/M04 A2987 RMK A01 T01701037  RH  024%=      5-min Rain = 0
KPD3 132040Z 25008KT 17/M04 A2987 RMK A01 T01701035  RH  024%=      5-min Rain = 0
KPD3 132041Z 25007KT 17/M04 A2987 RMK A01 T01701037  RH  024%=      5-min Rain = 0
KPD3 132042Z 26007KT 17/M03 A2987 RMK A01 T01711034  RH  025%=      5-min Rain = 0
KPD3 132043Z 24007KT 17/M04 A2987 RMK A01 T01711036  RH  024%=      5-min Rain = 0
KPD3 132044Z 25007KT 17/M04 A2987 RMK A01 T01711035  RH  024%=      5-min Rain = 0
KPD3 132045Z 25006KT 17/M04 A2987 RMK A01 T01701036  RH  024%=      5-min Rain = 0
KPD3 132046Z 26006KT 17/M03 A2987 RMK A01 T01701032  RH  025%=      5-min Rain = 0
KPD3 132047Z 28008KT 17/M04 A2987 RMK A01 T01731039  RH  023%=      5-min Rain = 0
KPD3 132048Z 28008KT 17/M04 A2987 RMK A01 T01731043  RH  023%=      5-min Rain = 0
KPD3 132049Z 27008KT 17/M04 A2987 RMK A01 T01731038  RH  023%=      5-min Rain = 0
KPD3 132050Z 26007KT 17/M04 A2987 RMK A01 T01731035  RH  024%=      5-min Rain = 0
KPD3 132051Z 26007KT 17/M03 A2987 RMK A01 T01741034  RH  024%=      5-min Rain = 0
KPD3 132052Z 26008KT 17/M04 A2987 RMK A01 T01741035  RH  024%=      5-min Rain = 0
KPD3 132053Z 27008KT 17/M04 A2987 RMK A01 T01741037  RH  023%=      5-min Rain = 0
KPD3 132054Z 28007KT 17/M04 A2987 RMK A01 T01741036  RH  024%=      5-min Rain = 0
KPD3 132055Z 28007KT 17/M03 A2987 RMK A01 T01741032  RH  024%=      5-min Rain = 0
KPD3 132056Z 27006KT 18/M03 A2987 RMK A01 T01761030  RH  024%=      5-min Rain = 0
KPD3 132057Z 26005KT 18/M03 A2987 RMK A01 T01761034  RH  024%=      5-min Rain = 0
KPD3 132058Z 26006KT 18/M04 A2987 RMK A01 T01761035  RH  023%=      5-min Rain = 0
KPD3 132059Z 25008KT 18/M03 A2987 RMK A01 T01771034  RH  023%=      5-min Rain = 0
KPD3 132100Z 24006KT 18/M03 A2987 RMK A01 T01771030  RH  024%=      5-min Rain = 0
KPD3 132101Z 23005KT 18/M03 A2987 RMK A01 T01771031  RH  024%=      5-min Rain = 0
KPD3 132102Z 25005KT 18/M03 A2987 RMK A01 T01761030  RH  024%=      5-min Rain = 0
KPD3 132103Z 26006KT 18/M03 A2987 RMK A01 T01761029  RH  025%=      5-min Rain = 0
KPD3 132104Z 28005KT 18/M03 A2987 RMK A01 T01781028  RH  024%=      5-min Rain = 0
KPD3 132105Z 27004KT 18/M03 A2987 RMK A01 T01791032  RH  024%=      5-min Rain = 0
KPD3 132106Z 25007KT 18/M03 A2987 RMK A01 T01791031  RH  024%=      5-min Rain = 0
KPD3 132107Z 25007KT 18/M03 A2986 RMK A01 T01781032  RH  024%=      5-min Rain = 0
KPD3 132108Z 26007KT 18/M03 A2986 RMK A01 T01771030  RH  024%=      5-min Rain = 0
KPD3 132109Z 28007KT 18/M04 A2986 RMK A01 T01771038  RH  023%=      5-min Rain = 0
KPD3 132110Z 28006KT 18/M04 A2986 RMK A01 T01771041  RH  022%=      5-min Rain = 0
KPD3 132111Z 28006KT 18/M04 A2986 RMK A01 T01771041  RH  022%=      5-min Rain = 0
KPD3 132112Z 27005KT 18/M04 A2986 RMK A01 T01771042  RH  022%=      5-min Rain = 0
KPD3 132113Z 27005KT 18/M04 A2986 RMK A01 T01771041  RH  022%=      5-min Rain = 0
KPD3 132114Z 26005KT 18/M04 A2986 RMK A01 T01771043  RH  022%=      5-min Rain = 0
KPD3 132115Z 27005KT 18/M04 A2986 RMK A01 T01781042  RH  022%=      5-min Rain = 0
KPD3 132116Z 26007KT 18/M04 A2986 RMK A01 T01801038  RH  022%=      5-min Rain = 0
KPD3 132117Z 26006KT 18/M04 A2986 RMK A01 T01801036  RH  023%=      5-min Rain = 0
KPD3 132118Z 25006KT 18/M03 A2986 RMK A01 T01811033  RH  023%=      5-min Rain = 0
KPD3 132119Z 25007KT 18/M03 A2986 RMK A01 T01831034  RH  023%=      5-min Rain = 0
KPD3 132120Z 27007KT 18/M04 A2986 RMK A01 T01841035  RH  022%=      5-min Rain = 0
KPD3 132121Z 25007KT 18/M04 A2986 RMK A01 T01841038  RH  022%=      5-min Rain = 0
KPD3 132122Z 25007KT 18/M04 A2986 RMK A01 T01831040  RH  022%=      5-min Rain = 0
KPD3 132123Z 25006KT 18/M04 A2986 RMK A01 T01811043  RH  021%=      5-min Rain = 0
KPD3 132124Z 25005KT 18/M04 A2986 RMK A01 T01821039  RH  022%=      5-min Rain = 0
KPD3 132125Z 25005KT 18/M04 A2986 RMK A01 T01841039  RH  022%=      5-min Rain = 0
KPD3 132126Z 25007KT 19/M03 A2986 RMK A01 T01851034  RH  022%=      5-min Rain = 0
KPD3 132127Z 25006KT 18/M04 A2986 RMK A01 T01841036  RH  022%=      5-min Rain = 0
KPD3 132128Z 24006KT 18/M03 A2986 RMK A01 T01831033  RH  023%=      5-min Rain = 0
KPD3 132129Z 24006KT 18/M03 A2986 RMK A01 T01841029  RH  023%=      5-min Rain = 0
KPD3 132130Z 26007KT 19/M03 A2986 RMK A01 T01851032  RH  023%=      5-min Rain = 0
KPD3 132131Z 25008KT 19/M04 A2986 RMK A01 T01861038  RH  022%=      5-min Rain = 0
KPD3 132132Z 26006KT 18/M04 A2986 RMK A01 T01841038  RH  022%=      5-min Rain = 0
KPD3 132133Z 26005KT 18/M04 A2986 RMK A01 T01831035  RH  023%=      5-min Rain = 0
KPD3 132134Z 24007KT 18/M03 A2985 RMK A01 T01831033  RH  023%=      5-min Rain = 0
KPD3 132135Z 24007KT 18/M03 A2985 RMK A01 T01841031  RH  023%=      5-min Rain = 0
KPD3 132136Z 24006KT 18/M03 A2985 RMK A01 T01841030  RH  023%=      5-min Rain = 0
KPD3 132137Z 25006KT 19/M03 A2985 RMK A01 T01851028  RH  023%=      5-min Rain = 0
KPD3 132138Z 24006KT 19/M03 A2985 RMK A01 T01851028  RH  023%=      5-min Rain = 0
KPD3 132139Z 23007KT 18/M03 A2985 RMK A01 T01841027  RH  024%=      5-min Rain = 0
KPD3 132140Z 24007KT 18/M03 A2985 RMK A01 T01831027  RH  024%=      5-min Rain = 0
KPD3 132141Z 23007KT 18/M03 A2985 RMK A01 T01801027  RH  024%=      5-min Rain = 0
KPD3 132142Z 23007KT 18/M03 A2985 RMK A01 T01791027  RH  025%=      5-min Rain = 0
KPD3 132143Z 24007KT 18/M03 A2985 RMK A01 T01771028  RH  025%=      5-min Rain = 0
KPD3 132144Z 25008KT 18/M03 A2985 RMK A01 T01771026  RH  025%=      5-min Rain = 0
KPD3 132145Z 25009KT 18/M03 A2985 RMK A01 T01761027  RH  025%=      5-min Rain = 0
KPD3 132146Z 25008KT 18/M03 A2985 RMK A01 T01751025  RH  025%=      5-min Rain = 0
KPD3 132147Z 25008KT 18/M03 A2985 RMK A01 T01751026  RH  025%=      5-min Rain = 0
KPD3 132148Z 25007KT 18/M02 A2985 RMK A01 T01751024  RH  026%=      5-min Rain = 0
KPD3 132149Z 25007KT 17/M02 A2985 RMK A01 T01741023  RH  026%=      5-min Rain = 0
KPD3 132150Z 24007KT 17/M02 A2985 RMK A01 T01741021  RH  026%=      5-min Rain = 0
KPD3 132151Z 24007KT 17/M02 A2985 RMK A01 T01731021  RH  026%=      5-min Rain = 0
KPD3 132152Z 24007KT 17/M02 A2985 RMK A01 T01731023  RH  026%=      5-min Rain = 0
KPD3 132153Z 24007KT 17/M02 A2985 RMK A01 T01721023  RH  026%=      5-min Rain = 0
KPD3 132154Z 24007KT 17/M02 A2985 RMK A01 T01721022  RH  027%=      5-min Rain = 0
KPD3 132155Z 24007KT 17/M02 A2985 RMK A01 T01721019  RH  027%=      5-min Rain = 0
KPD3 132156Z 24007KT 17/M02 A2985 RMK A01 T01721018  RH  027%=      5-min Rain = 0
KPD3 132157Z 25006KT 17/M02 A2985 RMK A01 T01721017  RH  027%=      5-min Rain = 0
KPD3 132158Z 25006KT 17/M02 A2985 RMK A01 T01721016  RH  028%=      5-min Rain = 0
KPD3 132159Z 25006KT 17/M02 A2985 RMK A01 T01711015  RH  028%=      5-min Rain = 0
KPD3 132200Z 25006KT 17/M02 A2985 RMK A01 T01701016  RH  028%=      5-min Rain = 0
KPD3 132201Z 25005KT 17/M01 A2985 RMK A01 T01701014  RH  029%=      5-min Rain = 0
KPD3 132202Z 26006KT 17/M01 A2985 RMK A01 T01701013  RH  029%=      5-min Rain = 0
KPD3 132203Z 26006KT 17/M02 A2985 RMK A01 T01691016  RH  028%=      5-min Rain = 0
KPD3 132204Z 25006KT 17/M02 A2985 RMK A01 T01691015  RH  028%=      5-min Rain = 0
KPD3 132205Z 25005KT 17/M01 A2985 RMK A01 T01691013  RH  029%=      5-min Rain = 0
KPD3 132206Z 25005KT 17/M01 A2985 RMK A01 T01701012  RH  029%=      5-min Rain = 0
KPD3 132207Z 25004KT 17/M01 A2985 RMK A01 T01711012  RH  029%=      5-min Rain = 0
KPD3 132208Z 25005KT 17/M01 A2985 RMK A01 T01721010  RH  029%=      5-min Rain = 0
KPD3 132209Z 25005KT 17/M01 A2985 RMK A01 T01731011  RH  029%=      5-min Rain = 0
KPD3 132210Z 25005KT 17/M01 A2985 RMK A01 T01741013  RH  028%=      5-min Rain = 0
KPD3 132211Z 24004KT 17/M01 A2985 RMK A01 T01741011  RH  028%=      5-min Rain = 0
KPD3 132212Z 23005KT 17/M01 A2985 RMK A01 T01741009  RH  029%=      5-min Rain = 0
KPD3 132213Z 23005KT 18/M01 A2985 RMK A01 T01751012  RH  028%=      5-min Rain = 0
KPD3 132214Z 24006KT 18/M01 A2985 RMK A01 T01751012  RH  028%=      5-min Rain = 0
KPD3 132215Z 24005KT 18/M01 A2985 RMK A01 T01751012  RH  028%=      5-min Rain = 0
KPD3 132216Z 24004KT 18/M01 A2985 RMK A01 T01751012  RH  028%=      5-min Rain = 0
KPD3 132217Z 23004KT 18/M01 A2985 RMK A01 T01751009  RH  029%=      5-min Rain = 0
KPD3 132218Z 23005KT 18/M01 A2985 RMK A01 T01751010  RH  028%=      5-min Rain = 0
KPD3 132219Z 23005KT 18/M01 A2985 RMK A01 T01751010  RH  028%=      5-min Rain = 0
KPD3 132220Z 24004KT 18/M01 A2985 RMK A01 T01761009  RH  028%=      5-min Rain = 0
KPD3 132221Z 23004KT 18/M01 A2985 RMK A01 T01771008  RH  028%=      5-min Rain = 0
KPD3 132222Z 23005KT 18/M01 A2985 RMK A01 T01781009  RH  028%=      5-min Rain = 0
KPD3 132223Z 22004KT 18/M01 A2985 RMK A01 T01791009  RH  028%=      5-min Rain = 0
KPD3 132224Z 23005KT 18/M01 A2985 RMK A01 T01791009  RH  028%=      5-min Rain = 0
KPD3 132225Z 24003KT 18/M01 A2985 RMK A01 T01791011  RH  027%=      5-min Rain = 0
KPD3 132226Z 22003KT 18/M01 A2984 RMK A01 T01781010  RH  028%=      5-min Rain = 0
KPD3 132227Z 21004KT 18/M01 A2984 RMK A01 T01781010  RH  028%=      5-min Rain = 0
KPD3 132228Z 22004KT 18/M01 A2984 RMK A01 T01781012  RH  027%=      5-min Rain = 0
KPD3 132229Z 22005KT 18/M01 A2984 RMK A01 T01781012  RH  028%=      5-min Rain = 0
KPD3 132230Z 23004KT 18/M01 A2984 RMK A01 T01781014  RH  027%=      5-min Rain = 0
KPD3 132231Z 23004KT 18/M01 A2984 RMK A01 T01771013  RH  027%=      5-min Rain = 0
KPD3 132232Z 21003KT 18/M01 A2984 RMK A01 T01771013  RH  027%=      5-min Rain = 0
KPD3 132233Z 20004KT 18/M01 A2984 RMK A01 T01771013  RH  027%=      5-min Rain = 0
KPD3 132234Z 21005KT 18/M01 A2984 RMK A01 T01771012  RH  028%=      5-min Rain = 0
KPD3 132235Z 20004KT 18/M01 A2984 RMK A01 T01771012  RH  028%=      5-min Rain = 0
KPD3 132236Z 21004KT 18/M01 A2984 RMK A01 T01771012  RH  028%=      5-min Rain = 0
KPD3 132237Z 20003KT 18/M01 A2984 RMK A01 T01761012  RH  028%=      5-min Rain = 0
KPD3 132238Z 20003KT 18/M01 A2984 RMK A01 T01761012  RH  028%=      5-min Rain = 0
KPD3 132239Z 20004KT 18/M01 A2984 RMK A01 T01761009  RH  028%=      5-min Rain = 0
KPD3 132240Z 20005KT 18/M01 A2984 RMK A01 T01761012  RH  028%=      5-min Rain = 0
KPD3 132241Z 21005KT 18/M01 A2984 RMK A01 T01761009  RH  028%=      5-min Rain = 0
KPD3 132242Z 21005KT 18/M01 A2984 RMK A01 T01761010  RH  028%=      5-min Rain = 0
KPD3 132243Z 22005KT 18/M01 A2984 RMK A01 T01761011  RH  028%=      5-min Rain = 0
KPD3 132244Z 21004KT 18/M01 A2984 RMK A01 T01761011  RH  028%=      5-min Rain = 0
KPD3 132245Z 20005KT 18/M01 A2984 RMK A01 T01761009  RH  028%=      5-min Rain = 0
KPD3 132246Z 20004KT 18/M01 A2984 RMK A01 T01761010  RH  028%=      5-min Rain = 0
KPD3 132247Z 20005KT 18/M01 A2984 RMK A01 T01751010  RH  028%=      5-min Rain = 0
KPD3 132248Z 19003KT 17/M01 A2984 RMK A01 T01741011  RH  028%=      5-min Rain = 0
KPD3 132249Z 19004KT 17/M01 A2984 RMK A01 T01741010  RH  029%=      5-min Rain = 0
KPD3 132250Z 19004KT 17/M01 A2984 RMK A01 T01731008  RH  029%=      5-min Rain = 0
KPD3 132251Z 19005KT 17/M01 A2984 RMK A01 T01721009  RH  029%=      5-min Rain = 0
KPD3 132252Z 18005KT 17/M01 A2984 RMK A01 T01721009  RH  029%=      5-min Rain = 0
KPD3 132253Z 18005KT 17/M01 A2984 RMK A01 T01721010  RH  029%=      5-min Rain = 0
KPD3 132254Z 18004KT 17/M01 A2984 RMK A01 T01711009  RH  029%=      5-min Rain = 0
KPD3 132255Z 18004KT 17/M01 A2984 RMK A01 T01711008  RH  030%=      5-min Rain = 0
KPD3 132256Z 18004KT 17/M01 A2984 RMK A01 T01701008  RH  030%=      5-min Rain = 0
KPD3 132257Z 19004KT 17/M01 A2984 RMK A01 T01701006  RH  030%=      5-min Rain = 0
KPD3 132258Z 19005KT 17/M01 A2984 RMK A01 T01691006  RH  030%=      5-min Rain = 0
KPD3 132259Z 19004KT 17/M01 A2984 RMK A01 T01681008  RH  030%=      5-min Rain = 0
KPD3 132300Z 20005KT 17/M01 A2984 RMK A01 T01681008  RH  030%=      5-min Rain = 0
KPD3 132301Z 20005KT 17/M01 A2984 RMK A01 T01671007  RH  031%=      5-min Rain = 0
KPD3 132302Z 20005KT 17/M01 A2984 RMK A01 T01651008  RH  031%=      5-min Rain = 0
KPD3 132303Z 20004KT 16/M01 A2984 RMK A01 T01641009  RH  031%=      5-min Rain = 0
KPD3 132304Z 20004KT 16/M01 A2984 RMK A01 T01621009  RH  031%=      5-min Rain = 0
KPD3 132305Z 19004KT 16/M01 A2984 RMK A01 T01611008  RH  032%=      5-min Rain = 0
KPD3 132306Z 19004KT 16/M01 A2983 RMK A01 T01591008  RH  032%=      5-min Rain = 0
KPD3 132307Z 19004KT 16/M01 A2983 RMK A01 T01571006  RH  033%=      5-min Rain = 0
KPD3 132308Z 19004KT 16/M01 A2983 RMK A01 T01561005  RH  033%=      5-min Rain = 0
KPD3 132309Z 19005KT 15/M01 A2983 RMK A01 T01541005  RH  034%=      5-min Rain = 0
KPD3 132310Z 18004KT 15/M01 A2983 RMK A01 T01521007  RH  034%=      5-min Rain = 0
KPD3 132311Z 18005KT 15/M01 A2983 RMK A01 T01511007  RH  034%=      5-min Rain = 0
KPD3 132312Z 19005KT 15/M01 A2983 RMK A01 T01501007  RH  034%=      5-min Rain = 0
KPD3 132313Z 19005KT 15/M01 A2983 RMK A01 T01491007  RH  034%=      5-min Rain = 0
KPD3 132314Z 19005KT 15/M01 A2983 RMK A01 T01481007  RH  035%=      5-min Rain = 0
KPD3 132315Z 19005KT 15/M01 A2983 RMK A01 T01471007  RH  035%=      5-min Rain = 0
KPD3 132316Z 19005KT 15/M01 A2983 RMK A01 T01471007  RH  035%=      5-min Rain = 0
KPD3 132317Z 18005KT 15/M01 A2983 RMK A01 T01471007  RH  035%=      5-min Rain = 0
KPD3 132318Z 18005KT 15/M01 A2983 RMK A01 T01471007  RH  035%=      5-min Rain = 0
KPD3 132319Z 19005KT 15/M01 A2983 RMK A01 T01461007  RH  035%=      5-min Rain = 0
KPD3 132320Z 19004KT 15/M01 A2984 RMK A01 T01451007  RH  035%=      5-min Rain = 0
KPD3 132321Z 19004KT 14/M01 A2984 RMK A01 T01441008  RH  035%=      5-min Rain = 0
KPD3 132322Z 20003KT 14/M01 A2984 RMK A01 T01441010  RH  035%=      5-min Rain = 0
KPD3 132323Z 20003KT 14/M01 A2984 RMK A01 T01431010  RH  035%=      5-min Rain = 0
KPD3 132324Z 21003KT 14/M01 A2984 RMK A01 T01421010  RH  035%=      5-min Rain = 0
KPD3 132325Z 20003KT 14/M01 A2984 RMK A01 T01411010  RH  035%=      5-min Rain = 0
KPD3 132326Z 20003KT 14/M01 A2984 RMK A01 T01401010  RH  036%=      5-min Rain = 0
KPD3 132327Z 20003KT 14/M01 A2984 RMK A01 T01381010  RH  036%=      5-min Rain = 0
KPD3 132328Z 20003KT 14/M01 A2984 RMK A01 T01381011  RH  036%=      5-min Rain = 0
KPD3 132329Z 20003KT 14/M01 A2984 RMK A01 T01371011  RH  036%=      5-min Rain = 0
KPD3 132330Z 20003KT 14/M01 A2984 RMK A01 T01361011  RH  036%=      5-min Rain = 0
KPD3 132331Z 21003KT 14/M01 A2984 RMK A01 T01351012  RH  036%=      5-min Rain = 0
KPD3 132332Z 21003KT 13/M01 A2984 RMK A01 T01331012  RH  037%=      5-min Rain = 0
KPD3 132333Z 21003KT 13/M01 A2984 RMK A01 T01321011  RH  037%=      5-min Rain = 0
KPD3 132334Z 22003KT 13/M01 A2984 RMK A01 T01321011  RH  037%=      5-min Rain = 0
KPD3 132335Z 22003KT 13/M01 A2984 RMK A01 T01311011  RH  038%=      5-min Rain = 0
KPD3 132336Z 22003KT 13/M01 A2984 RMK A01 T01291011  RH  038%=      5-min Rain = 0
KPD3 132337Z 21003KT 13/M01 A2984 RMK A01 T01291010  RH  038%=      5-min Rain = 0
KPD3 132338Z 21003KT 13/M01 A2984 RMK A01 T01291010  RH  038%=      5-min Rain = 0
KPD3 132339Z 21003KT 13/M01 A2984 RMK A01 T01291009  RH  038%=      5-min Rain = 0
KPD3 132340Z 21003KT 13/M01 A2984 RMK A01 T01291009  RH  039%=      5-min Rain = 0
KPD3 132341Z 21003KT 13/M01 A2984 RMK A01 T01281009  RH  039%=      5-min Rain = 0
KPD3 132342Z 21003KT 13/M01 A2984 RMK A01 T01281009  RH  039%=      5-min Rain = 0
KPD3 132343Z 21003KT 13/M01 A2985 RMK A01 T01261009  RH  039%=      5-min Rain = 0
KPD3 132344Z 21003KT 13/M01 A2985 RMK A01 T01251010  RH  039%=      5-min Rain = 0
KPD3 132345Z 21003KT 12/M01 A2985 RMK A01 T01221010  RH  040%=      5-min Rain = 0
KPD3 132346Z 21003KT 12/M01 A2985 RMK A01 T01211010  RH  040%=      5-min Rain = 0
KPD3 132347Z 20003KT 12/M01 A2985 RMK A01 T01191009  RH  041%=      5-min Rain = 0
KPD3 132348Z 20003KT 12/M01 A2985 RMK A01 T01181009  RH  041%=      5-min Rain = 0
KPD3 132349Z 19003KT 12/M01 A2985 RMK A01 T01171009  RH  042%=      5-min Rain = 0
KPD3 132350Z 19003KT 12/M01 A2985 RMK A01 T01171008  RH  042%=      5-min Rain = 0
KPD3 132351Z 18003KT 12/M01 A2985 RMK A01 T01171008  RH  042%=      5-min Rain = 0
KPD3 132352Z 18003KT 12/M01 A2985 RMK A01 T01161008  RH  042%=      5-min Rain = 0
KPD3 132353Z 18003KT 12/M01 A2985 RMK A01 T01151008  RH  043%=      5-min Rain = 0
KPD3 132354Z 19003KT 11/M01 A2985 RMK A01 T01141007  RH  043%=      5-min Rain = 0
KPD3 132355Z 19002KT 11/M01 A2985 RMK A01 T01131006  RH  044%=      5-min Rain = 0
KPD3 132356Z 19002KT 11/M01 A2985 RMK A01 T01131005  RH  044%=      5-min Rain = 0
KPD3 132357Z 19002KT 11/M01 A2985 RMK A01 T01131005  RH  044%=      5-min Rain = 0
KPD3 132358Z 19002KT 11/M01 A2985 RMK A01 T01121006  RH  044%=      5-min Rain = 0
KPD3 132359Z 19002KT 11/M01 A2985 RMK A01 T01111007  RH  044%=      5-min Rain = 0
KPD3 140000Z 19002KT 11/M01 A2985 RMK A01 T01091006  RH  045%=      5-min Rain = 0
KPD3 140001Z 20002KT 11/M01 A2985 RMK A01 T01081006  RH  045%=      5-min Rain = 0
KPD3 140002Z 21002KT 11/M01 A2985 RMK A01 T01071007  RH  045%=      5-min Rain = 0
KPD3 140003Z 20002KT 11/M01 A2985 RMK A01 T01081005  RH  045%=      5-min Rain = 0
KPD3 140004Z 20002KT 11/M01 A2985 RMK A01 T01101005  RH  045%=      5-min Rain = 0
KPD3 140005Z 20002KT 11/M01 A2985 RMK A01 T01111005  RH  044%=      5-min Rain = 0
KPD3 140006Z 20002KT 11/M01 A2985 RMK A01 T01121006  RH  044%=      5-min Rain = 0
KPD3 140007Z 19003KT 11/M01 A2985 RMK A01 T01111007  RH  044%=      5-min Rain = 0
KPD3 140008Z 19003KT 11/M01 A2984 RMK A01 T01081009  RH  044%=      5-min Rain = 0
KPD3 140009Z 19003KT 11/M01 A2984 RMK A01 T01071009  RH  045%=      5-min Rain = 0
KPD3 140010Z 18003KT 11/M01 A2984 RMK A01 T01061009  RH  045%=      5-min Rain = 0
KPD3 140011Z 18003KT 11/M01 A2984 RMK A01 T01061008  RH  045%=      5-min Rain = 0
KPD3 140012Z 18003KT 11/M01 A2984 RMK A01 T01061009  RH  045%=      5-min Rain = 0
KPD3 140013Z 18003KT 10/M02 A2984 RMK A01 T01011015  RH  045%=      5-min Rain = 0
KPD3 140014Z 18003KT 09/M02 A2984 RMK A01 T00911019  RH  046%=      5-min Rain = 0
KPD3 140015Z 18003KT 08/M02 A2984 RMK A01 T00831019  RH  049%=      5-min Rain = 0
KPD3 140016Z 18004KT 08/M02 A2984 RMK A01 T00781016  RH  051%=      5-min Rain = 0
KPD3 140017Z 18004KT 08/M01 A2984 RMK A01 T00771013  RH  053%=      5-min Rain = 0
KPD3 140018Z 18004KT 08/M01 A2984 RMK A01 T00801011  RH  053%=      5-min Rain = 0
KPD3 140019Z 18004KT 08/M01 A2984 RMK A01 T00841011  RH  051%=      5-min Rain = 0
KPD3 140020Z 17004KT 09/M01 A2984 RMK A01 T00851012  RH  051%=      5-min Rain = 0
KPD3 140021Z 17004KT 08/M01 A2984 RMK A01 T00841012  RH  051%=      5-min Rain = 0
KPD3 140022Z 17004KT 08/M01 A2984 RMK A01 T00831014  RH  051%=      5-min Rain = 0
KPD3 140023Z 17004KT 08/M02 A2984 RMK A01 T00771016  RH  052%=      5-min Rain = 0
KPD3 140024Z 17004KT 07/M02 A2984 RMK A01 T00731016  RH  053%=      5-min Rain = 0
KPD3 140025Z 17004KT 07/M01 A2984 RMK A01 T00721013  RH  054%=      5-min Rain = 0
KPD3 140026Z 17004KT 07/M01 A2984 RMK A01 T00711013  RH  055%=      5-min Rain = 0
KPD3 140027Z 18004KT 07/M02 A2984 RMK A01 T00681015  RH  056%=      5-min Rain = 0
KPD3 140028Z 18004KT 07/M02 A2984 RMK A01 T00651015  RH  056%=      5-min Rain = 0
KPD3 140029Z 18004KT 06/M02 A2984 RMK A01 T00631015  RH  057%=      5-min Rain = 0
KPD3 140030Z 19004KT 06/M02 A2984 RMK A01 T00611016  RH  058%=      5-min Rain = 0
KPD3 140031Z 18004KT 06/M02 A2984 RMK A01 T00581017  RH  059%=      5-min Rain = 0
KPD3 140032Z 19004KT 05/M02 A2984 RMK A01 T00541018  RH  060%=      5-min Rain = 0
KPD3 140033Z 19003KT 05/M02 A2984 RMK A01 T00521017  RH  061%=      5-min Rain = 0
KPD3 140034Z 19003KT 05/M02 A2984 RMK A01 T00511016  RH  062%=      5-min Rain = 0
KPD3 140035Z 20003KT 05/M02 A2984 RMK A01 T00501016  RH  062%=      5-min Rain = 0
KPD3 140036Z 20003KT 05/M02 A2984 RMK A01 T00491016  RH  063%=      5-min Rain = 0
KPD3 140037Z 20003KT 05/M02 A2984 RMK A01 T00491015  RH  063%=      5-min Rain = 0
KPD3 140038Z 20003KT 05/M01 A2984 RMK A01 T00501014  RH  063%=      5-min Rain = 0
KPD3 140039Z 21003KT 05/M01 A2984 RMK A01 T00521013  RH  063%=      5-min Rain = 0
KPD3 140040Z 20003KT 05/M01 A2984 RMK A01 T00531013  RH  063%=      5-min Rain = 0
KPD3 140041Z 20003KT 06/M01 A2984 RMK A01 T00551012  RH  062%=      5-min Rain = 0
KPD3 140042Z 21003KT 06/M01 A2984 RMK A01 T00561011  RH  062%=      5-min Rain = 0
KPD3 140043Z 21003KT 06/M01 A2984 RMK A01 T00571012  RH  061%=      5-min Rain = 0
KPD3 140044Z 21003KT 06/M01 A2984 RMK A01 T00551013  RH  062%=      5-min Rain = 0
KPD3 140045Z 21003KT 06/M01 A2984 RMK A01 T00551012  RH  062%=      5-min Rain = 0
KPD3 140046Z 21003KT 05/M01 A2984 RMK A01 T00541013  RH  062%=      5-min Rain = 0
KPD3 140047Z 21003KT 05/M01 A2984 RMK A01 T00521014  RH  062%=      5-min Rain = 0
KPD3 140048Z 20003KT 05/M02 A2984 RMK A01 T00491015  RH  063%=      5-min Rain = 0
KPD3 140049Z 20003KT 05/M01 A2984 RMK A01 T00481014  RH  064%=      5-min Rain = 0
KPD3 140050Z 20003KT 05/M02 A2984 RMK A01 T00461015  RH  064%=      5-min Rain = 0
KPD3 140051Z 20002KT 05/M02 A2984 RMK A01 T00451015  RH  065%=      5-min Rain = 0
KPD3 140052Z 21002KT 04/M02 A2984 RMK A01 T00441015  RH  066%=      5-min Rain = 0
KPD3 140053Z 21003KT 04/M01 A2984 RMK A01 T00441014  RH  066%=      5-min Rain = 0
KPD3 140054Z 21002KT 05/M01 A2984 RMK A01 T00451013  RH  066%=      5-min Rain = 0
KPD3 140055Z 22002KT 05/M01 A2984 RMK A01 T00451013  RH  066%=      5-min Rain = 0
KPD3 140056Z 22002KT 04/M01 A2984 RMK A01 T00441012  RH  067%=      5-min Rain = 0
KPD3 140057Z 23002KT 04/M01 A2984 RMK A01 T00431012  RH  067%=      5-min Rain = 0
KPD3 140058Z 24002KT 04/M01 A2984 RMK A01 T00421012  RH  068%=      5-min Rain = 0
KPD3 140059Z 23002KT 04/M01 A2984 RMK A01 T00401013  RH  068%=      5-min Rain = 0
KPD3 140100Z 24002KT 04/M01 A2984 RMK A01 T00391013  RH  069%=      5-min Rain = 0
KPD3 140101Z 24002KT 04/M01 A2984 RMK A01 T00391013  RH  069%=      5-min Rain = 0
KPD3 140102Z 23003KT 04/M01 A2984 RMK A01 T00391012  RH  069%=      5-min Rain = 0
KPD3 140103Z 22003KT 04/M01 A2984 RMK A01 T00401011  RH  069%=      5-min Rain = 0
KPD3 140104Z 22003KT 04/M01 A2984 RMK A01 T00411012  RH  069%=      5-min Rain = 0
KPD3 140105Z 22003KT 04/M01 A2984 RMK A01 T00401012  RH  068%=      5-min Rain = 0
KPD3 140106Z 21003KT 04/M01 A2984 RMK A01 T00381014  RH  069%=      5-min Rain = 0
KPD3 140107Z 22003KT 04/M01 A2984 RMK A01 T00371014  RH  069%=      5-min Rain = 0
KPD3 140108Z 22003KT 04/M01 A2984 RMK A01 T00361014  RH  070%=      5-min Rain = 0
KPD3 140109Z 22003KT 04/M01 A2984 RMK A01 T00351014  RH  070%=      5-min Rain = 0
KPD3 140110Z 22003KT 03/M02 A2984 RMK A01 T00341015  RH  070%=      5-min Rain = 0
KPD3 140111Z 22003KT 03/M02 A2984 RMK A01 T00331015  RH  071%=      5-min Rain = 0
KPD3 140112Z 23003KT 03/M02 A2984 RMK A01 T00321015  RH  071%=      5-min Rain = 0
KPD3 140113Z 23003KT 03/M02 A2984 RMK A01 T00311016  RH  072%=      5-min Rain = 0
KPD3 140114Z 23003KT 03/M02 A2984 RMK A01 T00291016  RH  072%=      5-min Rain = 0
KPD3 140115Z 22003KT 03/M02 A2984 RMK A01 T00281016  RH  073%=      5-min Rain = 0
KPD3 140116Z 22003KT 03/M02 A2984 RMK A01 T00271016  RH  074%=      5-min Rain = 0
KPD3 140117Z 22003KT 03/M02 A2984 RMK A01 T00261015  RH  074%=      5-min Rain = 0
KPD3 140118Z 21003KT 03/M02 A2984 RMK A01 T00251015  RH  075%=      5-min Rain = 0
KPD3 140119Z 21004KT 03/M02 A2984 RMK A01 T00251015  RH  075%=      5-min Rain = 0
KPD3 140120Z 20004KT 02/M02 A2983 RMK A01 T00241015  RH  075%=      5-min Rain = 0
KPD3 140121Z 20003KT 02/M02 A2983 RMK A01 T00241015  RH  075%=      5-min Rain = 0
KPD3 140122Z 20003KT 02/M02 A2983 RMK A01 T00241015  RH  075%=      5-min Rain = 0
KPD3 140123Z 20003KT 02/M02 A2983 RMK A01 T00241016  RH  075%=      5-min Rain = 0
KPD3 140124Z 19003KT 02/M02 A2983 RMK A01 T00241016  RH  075%=      5-min Rain = 0
KPD3 140125Z 19003KT 02/M02 A2983 RMK A01 T00231016  RH  075%=      5-min Rain = 0
KPD3 140126Z 19003KT 02/M02 A2983 RMK A01 T00231017  RH  075%=      5-min Rain = 0
KPD3 140127Z 20003KT 02/M02 A2982 RMK A01 T00241017  RH  074%=      5-min Rain = 0
KPD3 140128Z 21003KT 02/M02 A2982 RMK A01 T00241017  RH  074%=      5-min Rain = 0
KPD3 140129Z 20003KT 03/M02 A2982 RMK A01 T00251016  RH  074%=      5-min Rain = 0
KPD3 140130Z 21003KT 03/M02 A2982 RMK A01 T00251016  RH  074%=      5-min Rain = 0
KPD3 140131Z 21004KT 03/M02 A2982 RMK A01 T00251016  RH  074%=      5-min Rain = 0
KPD3 140132Z 22004KT 03/M02 A2982 RMK A01 T00251016  RH  074%=      5-min Rain = 0
KPD3 140133Z 22003KT 03/M02 A2982 RMK A01 T00251016  RH  074%=      5-min Rain = 0
KPD3 140134Z 23004KT 03/M02 A2982 RMK A01 T00251016  RH  074%=      5-min Rain = 0
KPD3 140135Z 23004KT 03/M02 A2982 RMK A01 T00251015  RH  075%=      5-min Rain = 0
KPD3 140136Z 22004KT 03/M02 A2982 RMK A01 T00251015  RH  075%=      5-min Rain = 0
KPD3 140137Z 22004KT 03/M02 A2982 RMK A01 T00251015  RH  075%=      5-min Rain = 0
KPD3 140138Z 23004KT 03/M01 A2982 RMK A01 T00261014  RH  075%=      5-min Rain = 0
KPD3 140139Z 23004KT 03/M01 A2982 RMK A01 T00261014  RH  075%=      5-min Rain = 0
KPD3 140140Z 22004KT 03/M01 A2982 RMK A01 T00271013  RH  074%=      5-min Rain = 0
KPD3 140141Z 22004KT 03/M01 A2982 RMK A01 T00291013  RH  074%=      5-min Rain = 0
KPD3 140142Z 22005KT 03/M01 A2982 RMK A01 T00301012  RH  074%=      5-min Rain = 0
KPD3 140143Z 22004KT 03/M01 A2982 RMK A01 T00311012  RH  074%=      5-min Rain = 0
KPD3 140144Z 23004KT 03/M01 A2982 RMK A01 T00311012  RH  073%=      5-min Rain = 0
KPD3 140145Z 23004KT 03/M01 A2982 RMK A01 T00311012  RH  073%=      5-min Rain = 0
KPD3 140146Z 23004KT 03/M01 A2982 RMK A01 T00321012  RH  073%=      5-min Rain = 0
KPD3 140147Z 23005KT 03/M01 A2982 RMK A01 T00321012  RH  073%=      5-min Rain = 0
KPD3 140148Z 22005KT 03/M01 A2982 RMK A01 T00331011  RH  073%=      5-min Rain = 0
KPD3 140149Z 21004KT 03/M01 A2982 RMK A01 T00341011  RH  072%=      5-min Rain = 0
KPD3 140150Z 21004KT 04/M01 A2982 RMK A01 T00361011  RH  071%=      5-min Rain = 0
KPD3 140151Z 21004KT 04/M01 A2981 RMK A01 T00371011  RH  071%=      5-min Rain = 0
KPD3 140152Z 21005KT 04/M01 A2981 RMK A01 T00391010  RH  070%=      5-min Rain = 0
KPD3 140153Z 22005KT 04/M01 A2982 RMK A01 T00411011  RH  069%=      5-min Rain = 0
KPD3 140154Z 22005KT 04/M01 A2982 RMK A01 T00411012  RH  068%=      5-min Rain = 0
KPD3 140155Z 22005KT 04/M01 A2982 RMK A01 T00391014  RH  068%=      5-min Rain = 0
KPD3 140156Z 21004KT 04/M01 A2982 RMK A01 T00371014  RH  069%=      5-min Rain = 0
KPD3 140157Z 21005KT 04/M01 A2982 RMK A01 T00361014  RH  070%=      5-min Rain = 0
KPD3 140158Z 22005KT 04/M01 A2982 RMK A01 T00361013  RH  070%=      5-min Rain = 0
KPD3 140159Z 22005KT 04/M01 A2982 RMK A01 T00371013  RH  070%=      5-min Rain = 0
KPD3 140200Z 22005KT 04/M01 A2982 RMK A01 T00371013  RH  069%=      5-min Rain = 0
KPD3 140201Z 23005KT 04/M01 A2982 RMK A01 T00371014  RH  069%=      5-min Rain = 0
KPD3 140202Z 23005KT 04/M01 A2982 RMK A01 T00361014  RH  070%=      5-min Rain = 0
KPD3 140203Z 23005KT 04/M01 A2982 RMK A01 T00361013  RH  070%=      5-min Rain = 0
KPD3 140204Z 24005KT 04/M01 A2982 RMK A01 T00361013  RH  070%=      5-min Rain = 0
KPD3 140205Z 24005KT 04/M01 A2982 RMK A01 T00351012  RH  071%=      5-min Rain = 0
KPD3 140206Z 25005KT 04/M01 A2983 RMK A01 T00361011  RH  071%=      5-min Rain = 0
KPD3 140207Z 24005KT 04/M01 A2983 RMK A01 T00371010  RH  071%=      5-min Rain = 0
KPD3 140208Z 24005KT 04/M01 A2983 RMK A01 T00391009  RH  071%=      5-min Rain = 0
KPD3 140209Z 23005KT 04/M01 A2983 RMK A01 T00401009  RH  070%=      5-min Rain = 0
KPD3 140210Z 23005KT 04/M01 A2983 RMK A01 T00411009  RH  070%=      5-min Rain = 0
KPD3 140211Z 23004KT 04/M01 A2982 RMK A01 T00431009  RH  069%=      5-min Rain = 0
KPD3 140212Z 23004KT 05/M01 A2982 RMK A01 T00451008  RH  068%=      5-min Rain = 0
KPD3 140213Z 22004KT 05/M01 A2982 RMK A01 T00471008  RH  068%=      5-min Rain = 0
KPD3 140214Z 24004KT 05/M01 A2982 RMK A01 T00481009  RH  067%=      5-min Rain = 0
KPD3 140215Z 24004KT 05/M01 A2983 RMK A01 T00481009  RH  067%=      5-min Rain = 0
KPD3 140216Z 25004KT 05/M01 A2983 RMK A01 T00491009  RH  066%=      5-min Rain = 0
KPD3 140217Z 26004KT 05/M01 A2983 RMK A01 T00501009  RH  066%=      5-min Rain = 0
KPD3 140218Z 27005KT 05/M01 A2983 RMK A01 T00511008  RH  065%=      5-min Rain = 0
KPD3 140219Z 27004KT 05/M01 A2983 RMK A01 T00541008  RH  064%=      5-min Rain = 0
KPD3 140220Z 28005KT 06/M01 A2983 RMK A01 T00571008  RH  063%=      5-min Rain = 0
KPD3 140221Z 28005KT 06/M01 A2983 RMK A01 T00611008  RH  061%=      5-min Rain = 0
KPD3 140222Z 28005KT 06/M01 A2983 RMK A01 T00621010  RH  060%=      5-min Rain = 0
KPD3 140223Z 28005KT 06/M01 A2983 RMK A01 T00601012  RH  060%=      5-min Rain = 0
KPD3 140224Z 28005KT 06/M01 A2983 RMK A01 T00561013  RH  061%=      5-min Rain = 0
KPD3 140225Z 28005KT 05/M01 A2983 RMK A01 T00541013  RH  062%=      5-min Rain = 0
KPD3 140226Z 28005KT 05/M01 A2983 RMK A01 T00531012  RH  063%=      5-min Rain = 0
KPD3 140227Z 28006KT 05/M01 A2983 RMK A01 T00511013  RH  063%=      5-min Rain = 0
KPD3 140228Z 28005KT 05/M01 A2983 RMK A01 T00491014  RH  064%=      5-min Rain = 0
KPD3 140229Z 28005KT 05/M02 A2983 RMK A01 T00461015  RH  065%=      5-min Rain = 0
KPD3 140230Z 28004KT 04/M01 A2983 RMK A01 T00441014  RH  066%=      5-min Rain = 0
KPD3 140231Z 29003KT 04/M01 A2983 RMK A01 T00431014  RH  066%=      5-min Rain = 0
KPD3 140232Z 31002KT 04/M01 A2983 RMK A01 T00431013  RH  067%=      5-min Rain = 0
KPD3 140233Z 34001KT 04/M01 A2983 RMK A01 T00421013  RH  067%=      5-min Rain = 0
KPD3 140234Z 00002KT 04/M01 A2983 RMK A01 T00411014  RH  067%=      5-min Rain = 0
KPD3 140235Z 00002KT 04/M02 A2983 RMK A01 T00401015  RH  068%=      5-min Rain = 0
KPD3 140236Z 35001KT 04/M02 A2983 RMK A01 T00371016  RH  068%=      5-min Rain = 0
KPD3 140237Z 02001KT 04/M02 A2983 RMK A01 T00361015  RH  069%=      5-min Rain = 0
KPD3 140238Z 03002KT 04/M02 A2983 RMK A01 T00361015  RH  070%=      5-min Rain = 0
KPD3 140239Z 02002KT 04/M02 A2983 RMK A01 T00361015  RH  069%=      5-min Rain = 0
KPD3 140240Z 01002KT 04/M02 A2983 RMK A01 T00371016  RH  068%=      5-min Rain = 0
KPD3 140241Z 01003KT 04/M02 A2983 RMK A01 T00381016  RH  068%=      5-min Rain = 0
KPD3 140242Z 03002KT 04/M02 A2983 RMK A01 T00391015  RH  068%=      5-min Rain = 0
KPD3 140243Z 02002KT 04/M02 A2983 RMK A01 T00401015  RH  068%=      5-min Rain = 0
KPD3 140244Z 01002KT 04/M02 A2983 RMK A01 T00401015  RH  067%=      5-min Rain = 0
KPD3 140245Z 02002KT 04/M02 A2983 RMK A01 T00391016  RH  067%=      5-min Rain = 0
KPD3 140246Z 01002KT 04/M02 A2983 RMK A01 T00391016  RH  068%=      5-min Rain = 0
KPD3 140247Z 35003KT 04/M02 A2983 RMK A01 T00381016  RH  068%=      5-min Rain = 0
KPD3 140248Z 34003KT 04/M02 A2983 RMK A01 T00381016  RH  068%=      5-min Rain = 0
KPD3 140249Z 34004KT 04/M02 A2983 RMK A01 T00371016  RH  068%=      5-min Rain = 0
KPD3 140250Z 33004KT 04/M02 A2983 RMK A01 T00371016  RH  069%=      5-min Rain = 0
KPD3 140251Z 33004KT 04/M02 A2983 RMK A01 T00361015  RH  069%=      5-min Rain = 0
KPD3 140252Z 33004KT 04/M01 A2983 RMK A01 T00371014  RH  069%=      5-min Rain = 0
KPD3 140253Z 33003KT 04/M02 A2983 RMK A01 T00371015  RH  069%=      5-min Rain = 0
KPD3 140254Z 34003KT 04/M02 A2983 RMK A01 T00361016  RH  069%=      5-min Rain = 0
KPD3 140255Z 33004KT 03/M02 A2983 RMK A01 T00341016  RH  069%=      5-min Rain = 0
KPD3 140256Z 32004KT 03/M02 A2983 RMK A01 T00331016  RH  070%=      5-min Rain = 0
KPD3 140257Z 32006KT 03/M02 A2983 RMK A01 T00321016  RH  071%=      5-min Rain = 0
KPD3 140258Z 32006KT 03/M02 A2983 RMK A01 T00311015  RH  072%=      5-min Rain = 0
KPD3 140259Z 32006KT 03/M01 A2982 RMK A01 T00311014  RH  072%=      5-min Rain = 0
KPD3 140300Z 32005KT 03/M01 A2982 RMK A01 T00321013  RH  072%=      5-min Rain = 0
KPD3 140301Z 32005KT 03/M01 A2982 RMK A01 T00331014  RH  072%=      5-min Rain = 0
KPD3 140302Z 32005KT 03/M01 A2983 RMK A01 T00331013  RH  072%=      5-min Rain = 0
KPD3 140303Z 32006KT 03/M01 A2983 RMK A01 T00341012  RH  072%=      5-min Rain = 0
KPD3 140304Z 31006KT 03/M01 A2983 RMK A01 T00341012  RH  072%=      5-min Rain = 0
KPD3 140305Z 32006KT 04/M01 A2983 RMK A01 T00351012  RH  072%=      5-min Rain = 0
KPD3 140306Z 33006KT 04/M01 A2983 RMK A01 T00351011  RH  072%=      5-min Rain = 0
KPD3 140307Z 32006KT 04/M01 A2983 RMK A01 T00351010  RH  072%=      5-min Rain = 0
KPD3 140308Z 33006KT 04/M01 A2983 RMK A01 T00371009  RH  072%=      5-min Rain = 0
KPD3 140309Z 33006KT 04/M01 A2983 RMK A01 T00371009  RH  071%=      5-min Rain = 0
KPD3 140310Z 33006KT 04/M01 A2982 RMK A01 T00371010  RH  071%=      5-min Rain = 0
KPD3 140311Z 33005KT 04/M01 A2982 RMK A01 T00371009  RH  072%=      5-min Rain = 0
KPD3 140312Z 33006KT 04/M01 A2982 RMK A01 T00361009  RH  072%=      5-min Rain = 0
KPD3 140313Z 34007KT 04/M01 A2982 RMK A01 T00361009  RH  073%=      5-min Rain = 0
KPD3 140314Z 34006KT 04/M01 A2982 RMK A01 T00351008  RH  073%=      5-min Rain = 0
KPD3 140315Z 35006KT 04/M01 A2982 RMK A01 T00351009  RH  073%=      5-min Rain = 0
KPD3 140316Z 35007KT 03/M01 A2982 RMK A01 T00341009  RH  073%=      5-min Rain = 0
KPD3 140317Z 35007KT 03/M01 A2982 RMK A01 T00341008  RH  074%=      5-min Rain = 0
KPD3 140318Z 35007KT 03/M01 A2982 RMK A01 T00341008  RH  074%=      5-min Rain = 0
KPD3 140319Z 34007KT 03/M01 A2982 RMK A01 T00331008  RH  074%=      5-min Rain = 0
KPD3 140320Z 34007KT 03/M01 A2982 RMK A01 T00331008  RH  075%=      5-min Rain = 0
KPD3 140321Z 34007KT 03/M01 A2982 RMK A01 T00341007  RH  075%=      5-min Rain = 0
KPD3 140322Z 34007KT 03/M01 A2982 RMK A01 T00341007  RH  075%=      5-min Rain = 0
KPD3 140323Z 34007KT 03/M01 A2982 RMK A01 T00341007  RH  074%=      5-min Rain = 0
KPD3 140324Z 34007KT 03/M01 A2982 RMK A01 T00341007  RH  074%=      5-min Rain = 0
KPD3 140325Z 34007KT 03/M01 A2982 RMK A01 T00341007  RH  074%=      5-min Rain = 0
KPD3 140326Z 34006KT 03/M01 A2982 RMK A01 T00341008  RH  074%=      5-min Rain = 0
KPD3 140327Z 34006KT 03/M01 A2982 RMK A01 T00341008  RH  074%=      5-min Rain = 0
KPD3 140328Z 34006KT 03/M01 A2982 RMK A01 T00341008  RH  074%=      5-min Rain = 0
KPD3 140329Z 34006KT 04/M01 A2982 RMK A01 T00351007  RH  074%=      5-min Rain = 0
KPD3 140330Z 34006KT 03/M01 A2982 RMK A01 T00341008  RH  074%=      5-min Rain = 0
KPD3 140331Z 34006KT 03/M01 A2982 RMK A01 T00341008  RH  074%=      5-min Rain = 0
KPD3 140332Z 34007KT 03/M01 A2982 RMK A01 T00341008  RH  074%=      5-min Rain = 0
KPD3 140333Z 34007KT 04/M01 A2982 RMK A01 T00351008  RH  074%=      5-min Rain = 0
KPD3 140334Z 34007KT 04/M01 A2982 RMK A01 T00351008  RH  074%=      5-min Rain = 0
KPD3 140335Z 34007KT 04/M01 A2982 RMK A01 T00351008  RH  073%=      5-min Rain = 0
KPD3 140336Z 34007KT 04/M01 A2982 RMK A01 T00351008  RH  073%=      5-min Rain = 0
KPD3 140337Z 34007KT 04/M01 A2982 RMK A01 T00351008  RH  073%=      5-min Rain = 0
KPD3 140338Z 34007KT 03/M01 A2982 RMK A01 T00341009  RH  073%=      5-min Rain = 0
KPD3 140339Z 34007KT 03/M01 A2982 RMK A01 T00341009  RH  074%=      5-min Rain = 0
KPD3 140340Z 34006KT 03/M01 A2982 RMK A01 T00341009  RH  073%=      5-min Rain = 0
KPD3 140341Z 34006KT 04/M01 A2982 RMK A01 T00351008  RH  073%=      5-min Rain = 0
KPD3 140342Z 34006KT 04/M01 A2982 RMK A01 T00361008  RH  073%=      5-min Rain = 0
KPD3 140343Z 34006KT 04/M01 A2982 RMK A01 T00381008  RH  072%=      5-min Rain = 0
KPD3 140344Z 34006KT 04/M01 A2982 RMK A01 T00391008  RH  072%=      5-min Rain = 0
KPD3 140345Z 34006KT 04/M01 A2982 RMK A01 T00381009  RH  071%=      5-min Rain = 0
KPD3 140346Z 35006KT 04/M01 A2982 RMK A01 T00371009  RH  072%=      5-min Rain = 0
KPD3 140347Z 35006KT 04/M01 A2982 RMK A01 T00371008  RH  072%=      5-min Rain = 0
KPD3 140348Z 34005KT 04/M01 A2982 RMK A01 T00371008  RH  072%=      5-min Rain = 0
KPD3 140349Z 34006KT 04/M01 A2981 RMK A01 T00381007  RH  072%=      5-min Rain = 0
KPD3 140350Z 34005KT 04/M01 A2981 RMK A01 T00381008  RH  072%=      5-min Rain = 0
KPD3 140351Z 34005KT 04/M01 A2981 RMK A01 T00381008  RH  072%=      5-min Rain = 0
KPD3 140352Z 33005KT 04/M01 A2981 RMK A01 T00381008  RH  072%=      5-min Rain = 0
KPD3 140353Z 33005KT 04/M01 A2981 RMK A01 T00381009  RH  072%=      5-min Rain = 0
KPD3 140354Z 33005KT 04/M01 A2981 RMK A01 T00371010  RH  072%=      5-min Rain = 0
KPD3 140355Z 34005KT 04/M01 A2981 RMK A01 T00371009  RH  072%=      5-min Rain = 0
KPD3 140356Z 32005KT 04/M01 A2981 RMK A01 T00401008  RH  071%=      5-min Rain = 0
KPD3 140357Z 33005KT 04/M01 A2981 RMK A01 T00401010  RH  070%=      5-min Rain = 0
KPD3 140358Z 32006KT 04/M01 A2982 RMK A01 T00391011  RH  070%=      5-min Rain = 0
KPD3 140359Z 33006KT 04/M01 A2982 RMK A01 T00371012  RH  070%=      5-min Rain = 0
KPD3 140400Z 31006KT 04/M01 A2982 RMK A01 T00361012  RH  071%=      5-min Rain = 0
KPD3 140401Z 31006KT 03/M01 A2982 RMK A01 T00341013  RH  071%=      5-min Rain = 0
KPD3 140402Z 30006KT 03/M01 A2982 RMK A01 T00321013  RH  072%=      5-min Rain = 0
KPD3 140403Z 31007KT 03/M01 A2982 RMK A01 T00311012  RH  073%=      5-min Rain = 0
KPD3 140404Z 31006KT 03/M01 A2982 RMK A01 T00301013  RH  074%=      5-min Rain = 0
KPD3 140405Z 31006KT 03/M01 A2982 RMK A01 T00291013  RH  074%=      5-min Rain = 0
KPD3 140406Z 31006KT 03/M01 A2982 RMK A01 T00281012  RH  075%=      5-min Rain = 0
KPD3 140407Z 30006KT 03/M01 A2981 RMK A01 T00271012  RH  076%=      5-min Rain = 0
KPD3 140408Z 31005KT 03/M01 A2981 RMK A01 T00271011  RH  076%=      5-min Rain = 0
KPD3 140409Z 31005KT 03/M01 A2981 RMK A01 T00271011  RH  076%=      5-min Rain = 0
KPD3 140410Z 30005KT 03/M01 A2981 RMK A01 T00281011  RH  076%=      5-min Rain = 0
KPD3 140411Z 31005KT 03/M01 A2981 RMK A01 T00271011  RH  076%=      5-min Rain = 0
KPD3 140412Z 31005KT 03/M01 A2981 RMK A01 T00271011  RH  076%=      5-min Rain = 0
KPD3 140413Z 32004KT 03/M01 A2981 RMK A01 T00271011  RH  076%=      5-min Rain = 0
KPD3 140414Z 32004KT 03/M01 A298 RMK A01 T00301010  RH  075%=      5-min Rain = 0
KPD3 140415Z 32003KT 03/M01 A298 RMK A01 T00321009  RH  074%=      5-min Rain = 0
KPD3 140416Z 31003KT 03/M01 A298 RMK A01 T00341009  RH  073%=      5-min Rain = 0
KPD3 140417Z 33002KT 03/M01 A298 RMK A01 T00341010  RH  073%=      5-min Rain = 0
KPD3 140418Z 32002KT 03/M01 A298 RMK A01 T00341010  RH  073%=      5-min Rain = 0
KPD3 140419Z 34001KT 03/M01 A298 RMK A01 T00341011  RH  073%=      5-min Rain = 0
KPD3 140420Z 32001KT 03/M01 A298 RMK A01 T00341011  RH  073%=      5-min Rain = 0
KPD3 140421Z 32001KT 03/M01 A298 RMK A01 T00341011  RH  073%=      5-min Rain = 0
KPD3 140422Z 32000KT 03/M01 A298 RMK A01 T00311014  RH  072%=      5-min Rain = 0
KPD3 140423Z 00000KT 03/M01 A298 RMK A01 T00291013  RH  074%=      5-min Rain = 0
KPD3 140424Z 05000KT 03/M01 A2979 RMK A01 T00291011  RH  075%=      5-min Rain = 0
KPD3 140425Z 04001KT 03/M01 A2979 RMK A01 T00291011  RH  075%=      5-min Rain = 0
KPD3 140426Z 03001KT 03/M01 A2979 RMK A01 T00291011  RH  075%=      5-min Rain = 0
KPD3 140427Z 04002KT 03/M01 A2979 RMK A01 T00291011  RH  075%=      5-min Rain = 0
KPD3 140428Z 03002KT 03/M01 A2979 RMK A01 T00281011  RH  075%=      5-min Rain = 0
KPD3 140429Z 03002KT 03/M01 A2979 RMK A01 T00291011  RH  075%=      5-min Rain = 0
KPD3 140430Z 02002KT 03/M01 A2979 RMK A01 T00291012  RH  075%=      5-min Rain = 0
KPD3 140431Z 01002KT 03/M01 A2979 RMK A01 T00281012  RH  075%=      5-min Rain = 0
KPD3 140432Z 00002KT 03/M01 A2979 RMK A01 T00281013  RH  074%=      5-min Rain = 0
KPD3 140433Z 00002KT 03/M02 A2979 RMK A01 T00261015  RH  074%=      5-min Rain = 0
KPD3 140434Z 36002KT 03/M02 A2979 RMK A01 T00251015  RH  075%=      5-min Rain = 0
KPD3 140435Z 36002KT 02/M02 A2979 RMK A01 T00231016  RH  075%=      5-min Rain = 0
KPD3 140436Z 35002KT 02/M02 A2979 RMK A01 T00231015  RH  076%=      5-min Rain = 0
KPD3 140437Z 32002KT 02/M01 A2979 RMK A01 T00231014  RH  077%=      5-min Rain = 0
KPD3 140438Z 32002KT 02/M01 A2979 RMK A01 T00231014  RH  077%=      5-min Rain = 0
KPD3 140439Z 32002KT 02/M01 A2979 RMK A01 T00241013  RH  076%=      5-min Rain = 0
KPD3 140440Z 34003KT 03/M01 A2979 RMK A01 T00261012  RH  076%=      5-min Rain = 0
KPD3 140441Z 34003KT 03/M01 A2979 RMK A01 T00271012  RH  075%=      5-min Rain = 0
KPD3 140442Z 32002KT 03/M01 A2979 RMK A01 T00311010  RH  075%=      5-min Rain = 0
KPD3 140443Z 31002KT 03/M01 A2979 RMK A01 T00331011  RH  073%=      5-min Rain = 0
KPD3 140444Z 28002KT 03/M01 A2979 RMK A01 T00341012  RH  072%=      5-min Rain = 0
KPD3 140445Z 25001KT 03/M01 A2979 RMK A01 T00341012  RH  072%=      5-min Rain = 0
KPD3 140446Z 23001KT 03/M01 A2979 RMK A01 T00341011  RH  072%=      5-min Rain = 0
KPD3 140447Z 23002KT 04/M01 A2979 RMK A01 T00361010  RH  072%=      5-min Rain = 0
KPD3 140448Z 22002KT 04/M01 A2979 RMK A01 T00371011  RH  071%=      5-min Rain = 0
KPD3 140449Z 23004KT 04/M01 A2979 RMK A01 T00381011  RH  070%=      5-min Rain = 0
KPD3 140450Z 22003KT 04/M01 A2979 RMK A01 T00411008  RH  070%=      5-min Rain = 0
KPD3 140451Z 23003KT 04/M01 A2979 RMK A01 T00431008  RH  069%=      5-min Rain = 0
KPD3 140452Z 24004KT 05/M01 A2979 RMK A01 T00451009  RH  068%=      5-min Rain = 0
KPD3 140453Z 25003KT 04/M01 A2979 RMK A01 T00441010  RH  068%=      5-min Rain = 0
KPD3 140454Z 25003KT 04/M01 A2979 RMK A01 T00431010  RH  068%=      5-min Rain = 0
KPD3 140455Z 25004KT 04/M01 A2979 RMK A01 T00411010  RH  069%=      5-min Rain = 0
KPD3 140456Z 25005KT 04/M01 A298 RMK A01 T00391010  RH  070%=      5-min Rain = 0
KPD3 140457Z 23005KT 04/M01 A298 RMK A01 T00381010  RH  071%=      5-min Rain = 0
KPD3 140458Z 24005KT 04/M01 A298 RMK A01 T00371010  RH  071%=      5-min Rain = 0
KPD3 140459Z 24005KT 04/M01 A298 RMK A01 T00351010  RH  072%=      5-min Rain = 0
KPD3 140500Z 23005KT 03/M01 A298 RMK A01 T00331010  RH  073%=      5-min Rain = 0
KPD3 140501Z 23006KT 04/M01 A298 RMK A01 T00351007  RH  074%=      5-min Rain = 0
KPD3 140502Z 23007KT 04/M00 A298 RMK A01 T00431003  RH  072%=      5-min Rain = 0
KPD3 140503Z 23006KT 05/M00 A298 RMK A01 T00501002  RH  069%=      5-min Rain = 0
KPD3 140504Z 23006KT 05/M00 A298 RMK A01 T00531002  RH  067%=      5-min Rain = 0
KPD3 140505Z 23006KT 06/M00 A298 RMK A01 T00551002  RH  067%=      5-min Rain = 0
KPD3 140506Z 23006KT 06/M00 A298 RMK A01 T00561002  RH  066%=      5-min Rain = 0
KPD3 140507Z 23005KT 06/M00 A298 RMK A01 T00561001  RH  067%=      5-min Rain = 0
KPD3 140508Z 22005KT 06/00 A298 RMK A01 T00580001  RH  067%=      5-min Rain = 0
KPD3 140509Z 22005KT 06/00 A298 RMK A01 T00620003  RH  066%=      5-min Rain = 0
KPD3 140510Z 23004KT 06/00 A298 RMK A01 T00640003  RH  065%=      5-min Rain = 0
KPD3 140511Z 25004KT 06/00 A298 RMK A01 T00640002  RH  065%=      5-min Rain = 0
KPD3 140512Z 26004KT 07/00 A298 RMK A01 T00650002  RH  064%=      5-min Rain = 0
KPD3 140513Z 26005KT 07/00 A298 RMK A01 T00650002  RH  064%=      5-min Rain = 0
KPD3 140514Z 27004KT 06/00 A298 RMK A01 T00640002  RH  064%=      5-min Rain = 0
KPD3 140515Z 28005KT 06/00 A298 RMK A01 T00610001  RH  065%=      5-min Rain = 0
KPD3 140516Z 28006KT 06/00 A298 RMK A01 T005900-0  RH  066%=      5-min Rain = 0
KPD3 140517Z 28007KT 06/M00 A298 RMK A01 T00561001  RH  067%=      5-min Rain = 0
KPD3 140518Z 28007KT 05/M00 A298 RMK A01 T00531002  RH  067%=      5-min Rain = 0
KPD3 140519Z 28007KT 05/M00 A298 RMK A01 T00521002  RH  068%=      5-min Rain = 0
KPD3 140520Z 28007KT 05/M00 A298 RMK A01 T00521001  RH  069%=      5-min Rain = 0
KPD3 140521Z 27007KT 05/00 A298 RMK A01 T00540001  RH  069%=      5-min Rain = 0
KPD3 140522Z 27005KT 06/00 A2979 RMK A01 T00570003  RH  068%=      5-min Rain = 0
KPD3 140523Z 27005KT 06/00 A2979 RMK A01 T00590003  RH  067%=      5-min Rain = 0
KPD3 140524Z 27005KT 06/00 A2979 RMK A01 T00610003  RH  067%=      5-min Rain = 0
KPD3 140525Z 26005KT 06/00 A2979 RMK A01 T00610003  RH  066%=      5-min Rain = 0
KPD3 140526Z 26006KT 06/00 A2979 RMK A01 T00610003  RH  066%=      5-min Rain = 0
KPD3 140527Z 26006KT 06/00 A2979 RMK A01 T00620003  RH  066%=      5-min Rain = 0
KPD3 140528Z 26008KT 06/00 A2979 RMK A01 T00610002  RH  066%=      5-min Rain = 0
KPD3 140529Z 26009KT 06/00 A2979 RMK A01 T00600001  RH  066%=      5-min Rain = 0
KPD3 140530Z 26009KT 06/00 A2979 RMK A01 T00580001  RH  067%=      5-min Rain = 0
KPD3 140531Z 26010KT 06/00 A2979 RMK A01 T00570001  RH  067%=      5-min Rain = 0
KPD3 140532Z 27010KT 06/00 A2979 RMK A01 T00550001  RH  068%=      5-min Rain = 0
KPD3 140533Z 28010KT 06/00 A2979 RMK A01 T00550001  RH  068%=      5-min Rain = 0
KPD3 140534Z 28011KT 06/00 A2979 RMK A01 T00560002  RH  068%=      5-min Rain = 0
KPD3 140535Z 28010KT 06/00 A2979 RMK A01 T00580002  RH  068%=      5-min Rain = 0
KPD3 140536Z 28009KT 06/00 A2979 RMK A01 T00590003  RH  067%=      5-min Rain = 0
KPD3 140537Z 27009KT 06/00 A2979 RMK A01 T00610003  RH  066%=      5-min Rain = 0
KPD3 140538Z 27008KT 06/00 A2979 RMK A01 T00620002  RH  066%=      5-min Rain = 0
KPD3 140539Z 27008KT 06/00 A2978 RMK A01 T00620002  RH  065%=      5-min Rain = 0
KPD3 140540Z 27007KT 06/00 A2978 RMK A01 T00620001  RH  065%=      5-min Rain = 0
KPD3 140541Z 27007KT 06/00 A2978 RMK A01 T00630001  RH  064%=      5-min Rain = 0
KPD3 140542Z 28007KT 06/00 A2978 RMK A01 T00630001  RH  065%=      5-min Rain = 0
KPD3 140543Z 28008KT 06/00 A2978 RMK A01 T00630001  RH  065%=      5-min Rain = 0
KPD3 140544Z 27008KT 06/00 A2978 RMK A01 T00630001  RH  064%=      5-min Rain = 0
KPD3 140545Z 27007KT 06/00 A2978 RMK A01 T00620000  RH  065%=      5-min Rain = 0
KPD3 140546Z 27008KT 06/00 A2978 RMK A01 T00620000  RH  064%=      5-min Rain = 0
KPD3 140547Z 28007KT 06/00 A2978 RMK A01 T006200-0  RH  064%=      5-min Rain = 0
KPD3 140548Z 27006KT 06/00 A2978 RMK A01 T006300-0  RH  064%=      5-min Rain = 0
KPD3 140549Z 29007KT 06/M00 A2978 RMK A01 T00621001  RH  064%=      5-min Rain = 0
KPD3 140550Z 29007KT 06/M00 A2978 RMK A01 T00611002  RH  064%=      5-min Rain = 0
KPD3 140551Z 29007KT 06/M00 A2978 RMK A01 T00601001  RH  065%=      5-min Rain = 0
KPD3 140552Z 28007KT 06/M00 A2978 RMK A01 T00591001  RH  065%=      5-min Rain = 0
KPD3 140553Z 28006KT 06/M00 A2978 RMK A01 T00591002  RH  065%=      5-min Rain = 0
KPD3 140554Z 28007KT 06/M00 A2978 RMK A01 T00611002  RH  064%=      5-min Rain = 0
KPD3 140555Z 28006KT 06/M00 A2978 RMK A01 T00621002  RH  064%=      5-min Rain = 0
KPD3 140556Z 27006KT 06/M00 A2978 RMK A01 T00621003  RH  063%=      5-min Rain = 0
KPD3 140557Z 27006KT 06/M00 A2977 RMK A01 T00631003  RH  063%=      5-min Rain = 0
KPD3 140558Z 26005KT 06/M00 A2977 RMK A01 T00631003  RH  063%=      5-min Rain = 0
KPD3 140559Z 26006KT 06/M00 A2977 RMK A01 T00631003  RH  063%=      5-min Rain = 0

Page generated in 0.067 seconds.